LLM9595 / RA-89072 7700 Squawk Report (17th of May, 2018)

Aircraft SU95 Reg No. RA-89072 Age 2 years old
Model SSJ-100 Jet engines 2 First flight 07-10-16
Registered 22-02-17 Rollout N/A Delivered 22-02-17
Construction No. 95115 Line No. 115 Series 95LR
ADSHEX 155BF0 Airline name Yamal Airlines Owner N/A
Airfield based Salekhard~Yamalo-Nenets~RA First tracked 2016-11-10 08:11:01

Flight history for RA-89072

Route Flight No Date Playback
Belgorod International Airport (EGO) - Domododevo (DME) YC472 2018-11-16 16:27:00
Domododevo (DME) - Belgorod International Airport (EGO) YC471 2018-11-16 15:43:00
???? YC9703 2018-11-16 12:14:00
Novyi Urengoy (NUX) - Pulkovo (LED) YC845 2018-11-16 10:07:00
Ufa (UFA) - Novyi Urengoy (NUX) YC288 2018-11-16 08:30:00
???? N/A 2018-11-16 02:12:00
Roschino (TJM) - Domododevo (DME) YC243 2018-11-15 19:00:00
Domododevo (DME) - Roschino (TJM) YC244 2018-11-15 14:18:00
Roschino (TJM) - Domododevo (DME) YC241 2018-11-15 06:38:00
Pulkovo (LED) - Roschino (TJM) YC812 2018-11-15 02:21:00
Novyi Urengoy (NUX) - Pulkovo (LED) YC845 2018-11-14 10:22:00
Ufa (UFA) - Novyi Urengoy (NUX) YC288 2018-11-14 08:39:00
Noyabrsk (NOJ) - Ufa (UFA) YC350 2018-11-13 14:42:00
Ufa (UFA) - Noyabrsk (NOJ) YC349 2018-11-13 13:23:00
Novyi Urengoy (NUX) - Ufa (UFA) YC287 2018-11-13 09:30:00
Ufa (UFA) - Novyi Urengoy (NUX) YC288 2018-11-13 06:21:00
Novyi Urengoy (NUX) - Ufa (UFA) YC287 2018-11-12 09:18:00
Ufa (UFA) - Novyi Urengoy (NUX) YC288 2018-11-12 07:48:00
Novyi Urengoy (NUX) - Ufa (UFA) YC187 2018-11-11 15:35:00
Pulkovo (LED) - Novyi Urengoy (NUX) YC846 2018-11-11 14:28:00
Time Lat Lon Altitude Heading Speed Vertical Rate
2018-05-17 09:45:10 GMT 55.624153 12.659554 0 174 6 0
2018-05-17 09:45:07 GMT 55.624256 12.659554 0 174 6 0
2018-05-17 09:44:59 GMT 55.624397 12.659533 0 126 4 0
2018-05-17 09:44:45 GMT 55.624466 12.659061 0 42 11 0
2018-05-17 09:44:30 GMT 55.624443 12.657237 0 42 18 0
2018-05-17 09:43:12 GMT 55.622726 12.651360 0 42 12 0
2018-05-17 09:43:06 GMT 55.622749 12.650757 0 42 13 0
2018-05-17 09:42:47 GMT 55.623379 12.649030 0 42 13 0
2018-05-17 09:42:43 GMT 55.623489 12.648718 0 42 12 0
2018-05-17 09:42:25 GMT 55.623161 12.646787 0 42 15 0
2018-05-17 09:42:12 GMT 55.622864 12.645576 0 42 15 0
2018-05-17 09:41:57 GMT 55.622452 12.644041 0 42 13 0
2018-05-17 09:41:54 GMT 55.622303 12.643766 0 42 13 0
2018-05-17 09:41:43 GMT 55.621708 12.643245 0 42 15 0
2018-05-17 09:41:22 GMT 55.620323 12.642088 0 42 18 0
2018-05-17 09:41:12 GMT 55.619637 12.641509 0 42 16 0
2018-05-17 09:38:08 GMT 55.607574 12.623915 0 14 20 0
2018-05-17 09:38:04 GMT 55.607231 12.623749 0 14 19 0
2018-05-17 09:37:45 GMT 55.605762 12.623248 0 14 22 0
2018-05-17 09:37:34 GMT 55.604565 12.622396 0 30 28 0
2018-05-17 09:37:25 GMT 55.603558 12.621044 0 42 41 0
2018-05-17 09:37:14 GMT 55.601200 12.617412 0 42 82 0
2018-05-17 09:37:03 GMT 55.597607 12.611854 0 42 130 0
2018-05-17 09:36:54 GMT 55.592728 12.604408 25 41 149 -704
2018-05-17 09:36:46 GMT 55.588943 12.598405 125 41 150 -768
2018-05-17 09:36:43 GMT 55.587112 12.595576 175 41 150 -768
2018-05-17 09:36:39 GMT 55.585236 12.592735 225 41 148 -896
2018-05-17 09:36:33 GMT 55.581848 12.587419 350 41 147 -832
2018-05-17 09:36:30 GMT 55.580795 12.585754 350 41 147 -832
2018-05-17 09:36:24 GMT 55.578064 12.581491 425 41 146 -704
2018-05-17 09:36:21 GMT 55.576015 12.578402 450 41 144 -704
2018-05-17 09:36:15 GMT 55.573502 12.574453 525 41 144 -768
2018-05-17 09:36:11 GMT 55.570541 12.570024 600 41 143 -768
2018-05-17 09:36:07 GMT 55.569443 12.568359 625 41 143 -704
2018-05-17 09:35:59 GMT 55.564938 12.561407 725 40 141 -704
2018-05-17 09:35:55 GMT 55.562988 12.558455 775 40 140 -704
2018-05-17 09:35:47 GMT 55.559326 12.552879 875 40 140 -704
2018-05-17 09:35:39 GMT 55.555023 12.546220 975 41 138 -768
2018-05-17 09:35:36 GMT 55.553970 12.544639 1,000 41 138 -704
2018-05-17 09:35:33 GMT 55.551811 12.541237 1,050 41 136 -704
2018-05-17 09:35:30 GMT 55.551132 12.540228 1,075 41 136 -704
2018-05-17 09:35:26 GMT 55.549484 12.537648 1,125 41 135 -576
2018-05-17 09:35:19 GMT 55.546177 12.532568 1,200 41 136 -768
2018-05-17 09:35:15 GMT 55.544220 12.529574 1,250 41 138 -704
2018-05-17 09:35:08 GMT 55.540359 12.523556 1,375 40 150 -704
2018-05-17 09:35:05 GMT 55.539101 12.521667 1,375 40 149 -768
2018-05-17 09:34:57 GMT 55.533875 12.513594 1,575 41 155 -832
2018-05-17 09:34:54 GMT 55.533421 12.512913 1,500 41 155 -768
2018-05-17 09:34:48 GMT 55.530117 12.507849 1,600 41 155 -832
2018-05-17 09:34:44 GMT 55.527695 12.504072 1,650 41 155 -768
2018-05-17 09:34:38 GMT 55.524204 12.498665 1,725 41 156 -768
2018-05-17 09:34:33 GMT 55.520874 12.493619 1,825 41 158 -768
2018-05-17 09:34:27 GMT 55.518677 12.490207 1,925 40 157 -512
2018-05-17 09:34:23 GMT 55.515839 12.485879 1,925 40 157 -512
2018-05-17 09:34:19 GMT 55.513405 12.482185 1,975 41 158 -320
2018-05-17 09:34:14 GMT 55.511215 12.478804 2,000 41 158 -128
2018-05-17 09:34:11 GMT 55.509495 12.476177 2,000 41 157 0
2018-05-17 09:34:07 GMT 55.507599 12.473228 2,000 41 158 -128
2018-05-17 09:34:04 GMT 55.505489 12.469912 2,000 41 158 -128
2018-05-17 09:33:59 GMT 55.502975 12.465987 2,000 41 158 -192
2018-05-17 09:33:55 GMT 55.500603 12.462273 2,025 41 165 -448
2018-05-17 09:33:51 GMT 55.498215 12.458579 2,075 41 158 -512
2018-05-17 09:33:48 GMT 55.496521 12.455833 2,075 41 158 -512
2018-05-17 09:33:45 GMT 55.495743 12.454584 2,125 42 159 -512
2018-05-17 09:33:42 GMT 55.493683 12.451422 2,125 42 159 -512
2018-05-17 09:33:38 GMT 55.491394 12.447759 2,150 42 160 -512
2018-05-17 09:33:35 GMT 55.489941 12.445364 2,175 42 162 -512
2018-05-17 09:33:32 GMT 55.488281 12.442766 2,200 42 162 -512
2018-05-17 09:33:28 GMT 55.486176 12.439353 2,225 42 164 -448
2018-05-17 09:33:24 GMT 55.483562 12.435236 2,275 41 165 -448
2018-05-17 09:33:21 GMT 55.482147 12.433028 2,300 40 169 -448
2018-05-17 09:33:18 GMT 55.480072 12.429914 2,350 39 174 -448
2018-05-17 09:33:11 GMT 55.476059 12.424122 2,375 38 176 -320
2018-05-17 09:33:08 GMT 55.472717 12.419615 2,400 33 184 -64
2018-05-17 09:33:03 GMT 55.470291 12.416715 2,400 32 185 -128
2018-05-17 09:33:00 GMT 55.468506 12.414800 2,400 29 188 -448
2018-05-17 09:32:54 GMT 55.463360 12.410688 2,450 12 196 -512
2018-05-17 09:32:50 GMT 55.460175 12.409224 2,500 12 197 -512
2018-05-17 09:32:44 GMT 55.453720 12.406810 2,550 11 202 -448
2018-05-17 09:32:38 GMT 55.448139 12.404938 2,600 9 203 -256
2018-05-17 09:32:33 GMT 55.444321 12.404079 2,625 3 204 -448
2018-05-17 09:32:30 GMT 55.442131 12.403814 2,650 1 205 -448
2018-05-17 09:32:27 GMT 55.438477 12.404130 2,675 346 208 -448
2018-05-17 09:32:22 GMT 55.434544 12.405645 2,725 331 214 -576
2018-05-17 09:32:19 GMT 55.431660 12.407559 2,725 333 213 -576
2018-05-17 09:32:16 GMT 55.428635 12.410431 2,750 327 216 -576
2018-05-17 09:32:11 GMT 55.424149 12.416086 2,800 322 222 -640
2018-05-17 09:32:07 GMT 55.420578 12.421043 2,850 322 224 -576
2018-05-17 09:32:02 GMT 55.417179 12.425787 2,900 322 227 -512
2018-05-17 09:31:58 GMT 55.414352 12.429657 2,925 322 228 -576
2018-05-17 09:31:55 GMT 55.411514 12.433615 2,950 322 230 -448
2018-05-17 09:31:51 GMT 55.408035 12.438381 3,025 322 229 -256
2018-05-17 09:31:48 GMT 55.405636 12.441767 3,000 322 229 -192
2018-05-17 09:31:43 GMT 55.400467 12.449008 3,025 315 229 0
2018-05-17 09:31:40 GMT 55.398788 12.451549 3,025 320 229 192
2018-05-17 09:31:37 GMT 55.397232 12.453811 3,025 319 229 192
2018-05-17 09:31:30 GMT 55.391251 12.464322 3,000 252 233 -512
2018-05-17 09:31:27 GMT 55.389633 12.468351 3,000 303 231 0
2018-05-17 09:31:20 GMT 55.386456 12.479636 3,000 289 232 -64
2018-05-17 09:31:16 GMT 55.385376 12.486285 3,025 280 233 -192
2018-05-17 09:31:09 GMT 55.384968 12.502358 3,050 261 233 -640
2018-05-17 09:31:06 GMT 55.385246 12.505937 3,075 258 233 -576
2018-05-17 09:30:58 GMT 55.387947 12.522417 3,150 252 234 -512
2018-05-17 09:30:55 GMT 55.388737 12.526744 3,175 252 234 -512
2018-05-17 09:30:50 GMT 55.390823 12.537501 3,225 252 232 -512
2018-05-17 09:30:45 GMT 55.391968 12.543640 3,250 252 232 -448
2018-05-17 09:30:42 GMT 55.393208 12.550049 3,425 252 232 -512
2018-05-17 09:30:39 GMT 55.394138 12.554876 3,300 252 232 -512
2018-05-17 09:30:35 GMT 55.395489 12.562034 3,350 252 232 -512
2018-05-17 09:30:32 GMT 55.397022 12.569941 3,425 252 232 -512
2018-05-17 09:30:26 GMT 55.399200 12.580961 3,425 252 233 -448
2018-05-17 09:30:23 GMT 55.399521 12.582658 3,450 252 233 -448
2018-05-17 09:30:18 GMT 55.401726 12.594161 3,500 252 239 -448
2018-05-17 09:30:14 GMT 55.402817 12.599622 3,600 252 244 -512
2018-05-17 09:30:09 GMT 55.405357 12.612721 3,575 252 238 -448
2018-05-17 09:30:05 GMT 55.406471 12.618380 3,625 252 240 -448
2018-05-17 09:30:02 GMT 55.407497 12.623624 3,625 252 244 -512
2018-05-17 09:29:57 GMT 55.408722 12.630077 3,650 252 245 -512
2018-05-17 09:29:53 GMT 55.410851 12.640852 3,700 252 250 -512
2018-05-17 09:29:47 GMT 55.412979 12.651969 3,750 252 252 -512
2018-05-17 09:29:44 GMT 55.413967 12.657082 3,775 252 256 -512
2018-05-17 09:29:41 GMT 55.414902 12.661905 3,800 252 257 -576
2018-05-17 09:29:37 GMT 55.416576 12.670566 3,875 252 261 -512
2018-05-17 09:29:31 GMT 55.419067 12.683635 3,900 252 265 -640
2018-05-17 09:29:25 GMT 55.421127 12.694217 3,950 252 268 -448
2018-05-17 09:29:20 GMT 55.423466 12.706271 4,000 252 267 -192
2018-05-17 09:29:15 GMT 55.424881 12.713363 4,000 252 268 -128
2018-05-17 09:29:12 GMT 55.426865 12.723416 4,000 251 270 64
2018-05-17 09:29:08 GMT 55.428680 12.732750 4,000 251 269 64
2018-05-17 09:29:01 GMT 55.430912 12.743974 4,000 251 270 64
2018-05-17 09:28:58 GMT 55.432159 12.750280 4,000 251 270 64
2018-05-17 09:28:55 GMT 55.433624 12.757470 4,000 251 270 0
2018-05-17 09:28:50 GMT 55.436142 12.769991 4,000 251 270 -64
2018-05-17 09:28:47 GMT 55.436920 12.774030 4,000 251 270 -64
2018-05-17 09:28:44 GMT 55.438568 12.782350 4,000 251 270 0
2018-05-17 09:28:39 GMT 55.440178 12.790416 4,000 251 269 0
2018-05-17 09:28:36 GMT 55.441200 12.795660 4,000 251 269 0
2018-05-17 09:28:32 GMT 55.443577 12.807811 4,000 252 269 64
2018-05-17 09:28:29 GMT 55.444225 12.811260 4,000 252 269 64
2018-05-17 09:28:26 GMT 55.445671 12.818642 4,000 252 269 64
2018-05-17 09:28:18 GMT 55.448547 12.833529 4,000 252 269 0
2018-05-17 09:28:15 GMT 55.449951 12.840786 4,000 252 269 0
2018-05-17 09:28:09 GMT 55.452484 12.854004 4,000 252 270 -64
2018-05-17 09:28:04 GMT 55.454361 12.863742 4,000 252 270 -64
2018-05-17 09:27:58 GMT 55.456375 12.874432 4,000 252 271 0
2018-05-17 09:27:52 GMT 55.458527 12.885714 4,000 252 271 0
2018-05-17 09:27:48 GMT 55.460522 12.896061 4,000 252 270 0
2018-05-17 09:27:44 GMT 55.462555 12.906772 4,000 252 270 -64
2018-05-17 09:27:41 GMT 55.463127 12.909622 4,000 252 270 0
2018-05-17 09:27:37 GMT 55.464851 12.918806 4,000 252 270 0
2018-05-17 09:27:30 GMT 55.467316 12.931595 4,025 252 271 -64
2018-05-17 09:27:27 GMT 55.468807 12.939234 4,025 252 272 0
2018-05-17 09:27:20 GMT 55.471691 12.954254 4,025 252 274 -256
2018-05-17 09:27:17 GMT 55.472996 12.961035 4,025 252 275 -384
2018-05-17 09:27:09 GMT 55.476162 12.977772 4,100 252 275 -512
2018-05-17 09:27:06 GMT 55.477158 12.983010 4,100 252 275 -448
2018-05-17 09:26:59 GMT 55.480583 13.000774 4,175 252 275 -512
2018-05-17 09:26:56 GMT 55.481331 13.004894 4,175 252 275 -512
2018-05-17 09:26:52 GMT 55.482971 13.013472 4,225 252 275 -512
2018-05-17 09:26:46 GMT 55.485565 13.027124 4,275 252 276 -448
2018-05-17 09:26:43 GMT 55.486591 13.032532 4,300 252 276 -512
2018-05-17 09:26:35 GMT 55.489849 13.049526 4,350 252 276 -512
2018-05-17 09:26:29 GMT 55.493042 13.066573 4,425 252 277 -512
2018-05-17 09:26:25 GMT 55.493668 13.069868 4,450 252 277 -576
2018-05-17 09:26:22 GMT 55.495148 13.077892 4,475 252 277 -512
2018-05-17 09:26:18 GMT 55.496887 13.087047 4,525 252 276 -576
2018-05-17 09:26:15 GMT 55.497902 13.092699 4,550 252 276 -576
2018-05-17 09:26:12 GMT 55.498924 13.098106 4,575 252 276 -576
2018-05-17 09:26:05 GMT 55.501858 13.114071 4,625 253 277 -512
2018-05-17 09:26:01 GMT 55.503162 13.121281 4,650 253 277 -512
2018-05-17 09:25:56 GMT 55.505585 13.134499 4,700 253 277 -512
2018-05-17 09:25:53 GMT 55.506516 13.139820 4,775 253 277 -576
2018-05-17 09:25:49 GMT 55.508003 13.148060 4,775 253 277 -576
2018-05-17 09:25:44 GMT 55.509865 13.158531 4,825 253 277 -1024
2018-05-17 09:25:41 GMT 55.510986 13.164867 4,875 253 278 -1216
2018-05-17 09:25:33 GMT 55.514786 13.184260 5,050 249 278 -1600
2018-05-17 09:25:30 GMT 55.515701 13.188255 5,100 243 279 -1600
2018-05-17 09:25:24 GMT 55.520187 13.203652 5,325 239 279 -1600
2018-05-17 09:25:21 GMT 55.521194 13.206482 5,425 236 279 -1472
2018-05-17 09:25:18 GMT 55.523941 13.213390 5,450 234 280 -1408
2018-05-17 09:25:13 GMT 55.527466 13.221713 5,550 233 281 -1536
2018-05-17 09:25:10 GMT 55.530022 13.227539 5,900 233 281 -1600
2018-05-17 09:25:04 GMT 55.534538 13.238010 5,775 233 282 -1728
2018-05-17 09:25:00 GMT 55.537949 13.245683 5,900 233 282 -1728
2018-05-17 09:24:55 GMT 55.543056 13.257322 6,100 232 283 -1664
2018-05-17 09:24:50 GMT 55.546597 13.265133 6,375 232 282 -1664
2018-05-17 09:24:42 GMT 55.552322 13.277836 6,450 232 282 -1536
2018-05-17 09:24:39 GMT 55.555489 13.284874 6,525 232 282 -1536
2018-05-17 09:24:32 GMT 55.560886 13.296804 6,675 232 283 -1536
2018-05-17 09:24:28 GMT 55.564178 13.304027 6,775 232 283 -1600
2018-05-17 09:24:21 GMT 55.569672 13.316179 6,975 232 283 -1664
2018-05-17 09:24:17 GMT 55.573547 13.324871 7,100 232 284 -1600
2018-05-17 09:24:14 GMT 55.576435 13.331223 7,200 232 285 -1536
2018-05-17 09:24:10 GMT 55.577911 13.334489 7,275 232 285 -1408
2018-05-17 09:24:07 GMT 55.581043 13.341436 7,325 232 286 -1280
2018-05-17 09:24:03 GMT 55.584412 13.348888 7,450 232 293 -448
2018-05-17 09:23:59 GMT 55.587749 13.356285 7,500 232 288 -768
2018-05-17 09:23:54 GMT 55.591240 13.364010 7,550 232 292 -512
2018-05-17 09:23:50 GMT 55.595169 13.372775 7,600 232 296 -512
2018-05-17 09:23:46 GMT 55.599480 13.382378 7,650 232 301 -640
2018-05-17 09:23:43 GMT 55.600754 13.385176 7,650 232 301 -640
2018-05-17 09:23:40 GMT 55.604877 13.394308 7,700 232 303 -640
2018-05-17 09:23:35 GMT 55.608276 13.401861 7,750 232 310 -640
2018-05-17 09:23:32 GMT 55.610870 13.407565 7,775 232 311 -640
2018-05-17 09:23:29 GMT 55.613724 13.413877 7,825 232 316 -704
2018-05-17 09:23:25 GMT 55.616425 13.419971 7,850 232 323 -704
2018-05-17 09:23:22 GMT 55.619888 13.427707 7,875 232 320 -704
2018-05-17 09:23:19 GMT 55.622707 13.433962 7,925 232 323 -576
2018-05-17 09:23:15 GMT 55.626526 13.442438 7,975 232 328 -512
2018-05-17 09:23:09 GMT 55.632343 13.455420 8,025 232 334 -768
2018-05-17 09:23:05 GMT 55.635818 13.463163 8,050 232 338 -1216
2018-05-17 09:23:01 GMT 55.640305 13.473067 8,150 232 339 -1984
2018-05-17 09:22:58 GMT 55.642818 13.478680 8,225 232 340 -2816
2018-05-17 09:22:55 GMT 55.644928 13.483387 8,475 232 340 -3200
2018-05-17 09:22:51 GMT 55.650421 13.495789 8,600 232 338 -3520
2018-05-17 09:22:48 GMT 55.652550 13.500481 8,725 232 338 -3392
2018-05-17 09:22:44 GMT 55.656086 13.508377 8,950 232 341 -3328
2018-05-17 09:22:41 GMT 55.659485 13.516013 9,200 232 343 -3328
2018-05-17 09:22:37 GMT 55.662827 13.523421 9,325 232 343 -3392
2018-05-17 09:22:34 GMT 55.665939 13.530412 9,500 232 344 -3520
2018-05-17 09:22:29 GMT 55.670837 13.541315 9,775 232 347 -3520
2018-05-17 09:22:24 GMT 55.676376 13.553716 10,125 232 349 -3584
2018-05-17 09:22:19 GMT 55.681824 13.565868 10,425 232 351 -3584
2018-05-17 09:22:13 GMT 55.686764 13.576956 10,900 232 355 -3456
2018-05-17 09:22:09 GMT 55.690952 13.586311 10,975 232 354 -3456
2018-05-17 09:22:05 GMT 55.694687 13.594666 11,175 232 356 -3520
2018-05-17 09:22:02 GMT 55.698402 13.602962 11,375 232 359 -4608
2018-05-17 09:21:57 GMT 55.703896 13.615322 11,725 232 360 -4160
2018-05-17 09:21:53 GMT 55.707573 13.623562 12,000 232 359 -4608
2018-05-17 09:21:49 GMT 55.711212 13.631620 12,225 232 359 -4608
2018-05-17 09:21:43 GMT 55.717861 13.646479 12,775 232 359 -4032
2018-05-17 09:21:40 GMT 55.722473 13.656838 13,050 232 359 -3904
2018-05-17 09:21:32 GMT 55.728928 13.671320 13,500 233 382 -2560
2018-05-17 09:21:29 GMT 55.732059 13.678322 13,625 232 362 -3712
2018-05-17 09:21:25 GMT 55.737507 13.690681 13,950 232 362 -3520
2018-05-17 09:21:22 GMT 55.739693 13.695488 14,075 232 362 -3328
2018-05-17 09:21:18 GMT 55.743439 13.703946 14,275 232 364 -2880
2018-05-17 09:21:14 GMT 55.747925 13.714100 14,575 232 365 -2816
2018-05-17 09:21:11 GMT 55.750401 13.719692 14,600 232 365 -2880
2018-05-17 09:21:06 GMT 55.756824 13.734112 14,900 232 363 -2688
2018-05-17 09:21:02 GMT 55.759781 13.740817 15,050 232 363 -2752
2018-05-17 09:20:59 GMT 55.763294 13.748703 15,425 232 364 -2048
2018-05-17 09:20:52 GMT 55.771301 13.766899 15,500 232 364 -2048
2018-05-17 09:20:48 GMT 55.774612 13.774359 15,625 232 366 -1920
2018-05-17 09:20:42 GMT 55.781078 13.788958 15,800 232 369 -1792
2018-05-17 09:20:39 GMT 55.783905 13.795416 15,950 232 372 -2048
2018-05-17 09:20:36 GMT 55.787796 13.804155 16,000 233 374 -2176
2018-05-17 09:20:33 GMT 55.790997 13.811445 16,125 233 374 -2176
2018-05-17 09:20:30 GMT 55.795094 13.820715 16,250 232 374 -2112
2018-05-17 09:20:22 GMT 55.802540 13.837624 16,500 233 376 -2368
2018-05-17 09:20:19 GMT 55.805923 13.845354 16,625 232 378 -2432
2018-05-17 09:20:13 GMT 55.813526 13.862600 16,925 233 379 -2816
2018-05-17 09:20:09 GMT 55.816692 13.869810 17,075 233 379 -2816
2018-05-17 09:20:02 GMT 55.824142 13.886802 17,425 233 378 -2688
2018-05-17 09:19:59 GMT 55.827957 13.895559 17,550 233 378 -2688
2018-05-17 09:19:55 GMT 55.831650 13.903947 17,700 233 384 -2432
2018-05-17 09:19:51 GMT 55.835449 13.912770 17,975 233 382 -2560
2018-05-17 09:19:48 GMT 55.839920 13.923025 18,050 233 380 -2368
2018-05-17 09:19:43 GMT 55.844284 13.933078 18,200 233 384 -2432
2018-05-17 09:19:40 GMT 55.847397 13.940152 18,325 233 381 -2368
2018-05-17 09:19:37 GMT 55.850952 13.948431 18,450 233 382 -2432
2018-05-17 09:19:29 GMT 55.860451 13.970318 18,850 233 385 -2432
2018-05-17 09:19:26 GMT 55.862686 13.975442 19,450 233 387 -2304
2018-05-17 09:19:20 GMT 55.869202 13.990488 19,125 233 387 -2304
2018-05-17 09:19:16 GMT 55.874542 14.002907 19,325 233 388 -2368
2018-05-17 09:19:10 GMT 55.880238 14.016066 19,525 233 389 -2432
2018-05-17 09:19:05 GMT 55.886536 14.030789 19,775 233 391 -2432
2018-05-17 09:18:57 GMT 55.895370 14.051430 20,100 233 393 -2560
2018-05-17 09:18:54 GMT 55.898392 14.058339 20,225 233 394 -2624
2018-05-17 09:18:49 GMT 55.902954 14.069023 20,400 233 394 -2624
2018-05-17 09:18:45 GMT 55.906860 14.078064 20,550 233 395 -2624
2018-05-17 09:18:39 GMT 55.914459 14.095625 20,850 233 397 -2624
2018-05-17 09:18:34 GMT 55.919247 14.106531 21,025 233 397 -2624
2018-05-17 09:18:31 GMT 55.923344 14.115887 21,200 232 398 -2688
2018-05-17 09:18:28 GMT 55.927486 14.125242 21,350 232 398 -2752
2018-05-17 09:18:25 GMT 55.930420 14.131765 21,475 232 398 -2816
2018-05-17 09:18:21 GMT 55.934875 14.141652 21,650 231 399 -2816
2018-05-17 09:18:18 GMT 55.938583 14.149725 21,800 231 399 -2752
2018-05-17 09:18:14 GMT 55.942520 14.158115 21,950 230 400 -2560
2018-05-17 09:18:11 GMT 55.947456 14.168329 22,125 230 402 -2432
2018-05-17 09:18:07 GMT 55.951134 14.175882 22,300 233 403 -2496
2018-05-17 09:18:04 GMT 55.955246 14.184765 22,625 238 404 -2688
2018-05-17 09:18:00 GMT 55.960117 14.196310 22,575 235 403 -2560
2018-05-17 09:17:57 GMT 55.962868 14.203348 22,700 236 404 -2624
2018-05-17 09:17:53 GMT 55.966404 14.213047 22,850 239 405 -2624
2018-05-17 09:17:47 GMT 55.972549 14.231956 23,150 242 405 -2624
2018-05-17 09:17:43 GMT 55.976086 14.243689 23,300 243 406 -2688
2018-05-17 09:17:36 GMT 55.981953 14.263601 23,625 243 407 -3072
2018-05-17 09:17:32 GMT 55.986748 14.279823 23,900 243 407 -3712
2018-05-17 09:17:26 GMT 55.990997 14.294295 24,200 243 405 -4096
2018-05-17 09:17:21 GMT 55.994522 14.306363 24,450 243 404 -4928
2018-05-17 09:17:15 GMT 56.001068 14.329002 25,125 243 395 -5952
2018-05-17 09:17:10 GMT 56.003906 14.338740 25,475 243 389 -5760
2018-05-17 09:17:04 GMT 56.008907 14.356041 26,025 243 382 -4288
2018-05-17 09:17:00 GMT 56.012100 14.367204 26,325 243 378 -4736
2018-05-17 09:16:54 GMT 56.017090 14.384599 26,800 243 372 -4800
2018-05-17 09:16:50 GMT 56.020309 14.395866 27,500 244 366 -2496
2018-05-17 09:16:43 GMT 56.025803 14.415178 27,550 244 366 -2496
2018-05-17 09:16:38 GMT 56.029667 14.428825 27,775 244 365 -2240
2018-05-17 09:16:32 GMT 56.034439 14.445939 27,950 244 366 -1152
2018-05-17 09:16:29 GMT 56.036045 14.451742 28,000 244 369 -320
2018-05-17 09:16:22 GMT 56.041538 14.471569 28,025 244 374 64
2018-05-17 09:16:19 GMT 56.043961 14.480324 28,025 244 378 0
2018-05-17 09:16:16 GMT 56.046295 14.488803 28,025 244 378 0
2018-05-17 09:16:12 GMT 56.050198 14.502811 28,025 244 384 -128
2018-05-17 09:16:09 GMT 56.051788 14.508528 28,025 244 389 -192
2018-05-17 09:16:02 GMT 56.056950 14.527187 28,075 244 404 -1984
2018-05-17 09:15:58 GMT 56.060623 14.540405 28,100 244 398 -1088
2018-05-17 09:15:55 GMT 56.063095 14.549394 28,150 244 402 -1728
2018-05-17 09:15:52 GMT 56.065521 14.558050 28,225 244 402 -1728
2018-05-17 09:15:48 GMT 56.068680 14.569588 28,325 244 405 -2048
2018-05-17 09:15:42 GMT 56.074173 14.589594 31,625 245 407 -2816
2018-05-17 09:15:34 GMT 56.080318 14.612589 28,925 245 407 -2880
2018-05-17 09:15:31 GMT 56.082363 14.620314 29,025 245 407 -2752
2018-05-17 09:15:27 GMT 56.085617 14.632707 29,450 245 408 -2752
2018-05-17 09:15:21 GMT 56.091064 14.653348 29,525 246 410 -2752
2018-05-17 09:15:16 GMT 56.094376 14.666233 29,950 246 410 -2624
2018-05-17 09:15:13 GMT 56.096741 14.675404 29,850 246 410 -2560
2018-05-17 09:15:06 GMT 56.102509 14.697710 30,275 246 414 -2304
2018-05-17 09:15:02 GMT 56.105621 14.709778 30,325 245 413 -2304
2018-05-17 09:14:59 GMT 56.108017 14.718847 30,425 246 414 -2304
2018-05-17 09:14:55 GMT 56.111389 14.731834 30,850 245 417 -2304
2018-05-17 09:14:52 GMT 56.113461 14.739704 30,700 245 417 -2368
2018-05-17 09:14:49 GMT 56.116161 14.750004 31,625 245 420 -2560
2018-05-17 09:14:45 GMT 56.119446 14.762545 30,975 245 420 -2560
2018-05-17 09:14:42 GMT 56.121983 14.772148 31,100 245 420 -2560
2018-05-17 09:14:39 GMT 56.124802 14.782687 31,250 245 421 -2368
2018-05-17 09:14:34 GMT 56.128464 14.796503 31,425 245 423 -2240
2018-05-17 09:14:29 GMT 56.133636 14.815896 31,750 245 426 -2624
2018-05-17 09:14:26 GMT 56.135422 14.822637 31,750 245 426 -2624
2018-05-17 09:14:23 GMT 56.138134 14.832659 31,900 245 427 -2816
2018-05-17 09:14:20 GMT 56.141647 14.845942 32,075 245 428 -2880
2018-05-17 09:14:17 GMT 56.144234 14.855661 32,225 245 428 -2944
2018-05-17 09:14:11 GMT 56.148796 14.872656 32,500 245 429 -3200
2018-05-17 09:14:06 GMT 56.152222 14.885726 32,725 245 430 -3264
2018-05-17 09:14:00 GMT 56.157303 14.904868 33,075 245 429 -3072
2018-05-17 09:13:57 GMT 56.160233 14.915855 33,400 244 431 -2496
2018-05-17 09:13:51 GMT 56.165634 14.935414 33,500 243 432 -2624
2018-05-17 09:13:47 GMT 56.169250 14.947898 33,850 242 433 -3008
2018-05-17 09:13:42 GMT 56.173374 14.961662 33,950 241 432 -3072
2018-05-17 09:13:39 GMT 56.178215 14.977112 34,150 241 433 -2880
2018-05-17 09:13:36 GMT 56.179825 14.982189 34,350 241 433 -3008
2018-05-17 09:13:32 GMT 56.183990 14.995256 34,425 241 434 -2944
2018-05-17 09:13:28 GMT 56.188385 15.009239 34,650 241 435 -2816
2018-05-17 09:13:25 GMT 56.190319 15.015306 34,750 241 435 -2752
2018-05-17 09:13:20 GMT 56.195755 15.032793 35,000 241 436 -2816
2018-05-17 09:13:14 GMT 56.202667 15.054682 35,325 241 437 -2880
2018-05-17 09:13:11 GMT 56.204544 15.060674 35,400 241 437 -2880
2018-05-17 09:13:08 GMT 56.207684 15.070667 35,575 241 437 -2880
2018-05-17 09:13:05 GMT 56.210678 15.080067 35,800 241 439 -3136
2018-05-17 09:13:01 GMT 56.214806 15.093155 35,925 241 439 -3008
2018-05-17 09:12:58 GMT 56.216949 15.099876 36,025 241 439 -2944
2018-05-17 09:12:53 GMT 56.222855 15.118436 36,325 241 439 -3008
2018-05-17 09:12:49 GMT 56.226353 15.129461 36,500 241 440 -2688
2018-05-17 09:12:43 GMT 56.233894 15.153236 36,850 241 440 -2944
2018-05-17 09:12:39 GMT 56.236828 15.162506 37,000 241 440 -2688
2018-05-17 09:12:33 GMT 56.243435 15.183449 37,300 241 441 -2688
2018-05-17 09:12:28 GMT 56.247208 15.195257 37,475 241 441 -2624
2018-05-17 09:12:22 GMT 56.254749 15.219240 37,800 241 441 -2752
2018-05-17 09:12:19 GMT 56.256424 15.224476 38,025 241 442 -2560
2018-05-17 09:12:16 GMT 56.259476 15.234292 38,025 241 442 -2560
2018-05-17 09:12:11 GMT 56.264328 15.249773 38,300 241 443 -2240
2018-05-17 09:12:08 GMT 56.267830 15.260868 38,375 241 443 -2496
2018-05-17 09:12:01 GMT 56.274857 15.283148 38,625 241 444 -2688
2018-05-17 09:11:58 GMT 56.277840 15.292625 38,775 241 444 -2496
2018-05-17 09:11:55 GMT 56.281815 15.305287 38,925 241 445 -2368
2018-05-17 09:11:50 GMT 56.285938 15.318289 39,075 241 445 -2304
2018-05-17 09:11:47 GMT 56.288872 15.327644 39,200 241 445 -2240
2018-05-17 09:11:42 GMT 56.293526 15.342407 39,375 241 446 -1856
2018-05-17 09:11:39 GMT 56.296925 15.353308 39,475 241 446 -1664
2018-05-17 09:11:36 GMT 56.299950 15.363007 39,575 241 446 -1600
2018-05-17 09:11:32 GMT 56.303955 15.375624 39,675 241 445 -1280
2018-05-17 09:11:27 GMT 56.309097 15.392012 39,800 241 445 -1152
2018-05-17 09:11:20 GMT 56.316895 15.416908 39,925 241 444 -768
2018-05-17 09:11:17 GMT 56.319828 15.426435 39,975 241 444 -192
2018-05-17 09:11:14 GMT 56.321823 15.432712 40,000 241 443 -64
2018-05-17 09:11:08 GMT 56.328022 15.452528 40,000 241 442 0
2018-05-17 09:11:04 GMT 56.331791 15.464544 40,000 241 442 0
2018-05-17 09:11:00 GMT 56.335751 15.477333 40,000 241 442 0
2018-05-17 09:10:56 GMT 56.340450 15.492268 40,000 241 442 -64
2018-05-17 09:10:51 GMT 56.346130 15.510464 40,000 241 442 0
2018-05-17 09:10:45 GMT 56.350971 15.526085 40,000 241 442 0
2018-05-17 09:10:42 GMT 56.353912 15.535417 40,000 241 442 64
2018-05-17 09:10:38 GMT 56.359165 15.552349 40,000 241 442 0
2018-05-17 09:10:35 GMT 56.361027 15.558443 40,000 241 442 64
2018-05-17 09:10:32 GMT 56.363892 15.567544 40,000 241 442 64
2018-05-17 09:10:26 GMT 56.369980 15.587103 40,000 241 443 0
2018-05-17 09:10:22 GMT 56.373871 15.599670 40,000 241 443 -64
2018-05-17 09:10:18 GMT 56.379684 15.618397 40,025 241 443 0
2018-05-17 09:10:15 GMT 56.382626 15.627794 40,025 241 443 128
2018-05-17 09:10:12 GMT 56.384216 15.633046 40,025 241 443 0
2018-05-17 09:10:08 GMT 56.387840 15.644703 40,000 241 443 0
2018-05-17 09:10:02 GMT 56.395245 15.668564 40,000 241 443 128
2018-05-17 09:09:54 GMT 56.402084 15.690622 40,000 241 444 0
2018-05-17 09:09:50 GMT 56.406555 15.705123 40,000 241 444 -64
2018-05-17 09:09:45 GMT 56.411537 15.721178 40,000 241 445 0
2018-05-17 09:09:41 GMT 56.415401 15.733709 40,000 241 444 0
2018-05-17 09:09:38 GMT 56.418411 15.743491 40,000 241 444 0
2018-05-17 09:09:34 GMT 56.421497 15.753536 40,000 241 444 0
2018-05-17 09:09:31 GMT 56.425415 15.766213 40,000 241 444 0
2018-05-17 09:09:27 GMT 56.429901 15.780778 40,000 241 444 0
2018-05-17 09:09:23 GMT 56.433323 15.791731 40,000 241 444 0
2018-05-17 09:09:19 GMT 56.436905 15.803417 40,000 241 444 -64
2018-05-17 09:09:16 GMT 56.439468 15.811729 40,000 241 444 0
2018-05-17 09:09:13 GMT 56.443333 15.824261 40,000 241 444 0
2018-05-17 09:09:09 GMT 56.446869 15.835848 40,000 241 444 -64
2018-05-17 09:09:06 GMT 56.449989 15.845976 40,000 241 444 0
2018-05-17 09:08:59 GMT 56.457001 15.868835 40,000 242 443 64
2018-05-17 09:08:56 GMT 56.459839 15.878074 40,000 242 443 0
2018-05-17 09:08:52 GMT 56.463821 15.890975 40,000 242 443 0
2018-05-17 09:08:49 GMT 56.466888 15.900962 40,000 242 444 64
2018-05-17 09:08:46 GMT 56.469910 15.910866 40,000 242 444 -64
2018-05-17 09:08:42 GMT 56.474075 15.924433 40,000 242 445 0
2018-05-17 09:08:38 GMT 56.477921 15.937001 40,000 241 444 0
2018-05-17 09:08:33 GMT 56.482342 15.951290 40,000 241 444 64
2018-05-17 09:08:28 GMT 56.487991 15.969876 40,000 242 445 0
2018-05-17 09:08:24 GMT 56.491745 15.982189 40,000 242 445 64
2018-05-17 09:08:21 GMT 56.494678 15.991631 40,000 242 445 0
2018-05-17 09:08:15 GMT 56.500778 16.011629 40,000 242 445 0
2018-05-17 09:08:10 GMT 56.505432 16.026907 40,000 242 445 0
2018-05-17 09:08:07 GMT 56.508545 16.037043 40,000 242 445 0
2018-05-17 09:08:03 GMT 56.513535 16.053522 40,000 242 445 -64
2018-05-17 09:08:00 GMT 56.515640 16.060347 40,000 242 445 -64
2018-05-17 09:07:56 GMT 56.519348 16.072582 40,000 242 445 0
2018-05-17 09:07:50 GMT 56.524933 16.090809 40,000 242 445 64
2018-05-17 09:07:46 GMT 56.529312 16.105270 40,000 242 445 -64
2018-05-17 09:07:43 GMT 56.532120 16.114531 40,000 242 445 0
2018-05-17 09:07:40 GMT 56.535088 16.124325 40,000 242 444 0
2018-05-17 09:07:33 GMT 56.542114 16.147413 40,000 242 446 0
2018-05-17 09:07:28 GMT 56.546997 16.163469 40,000 242 446 0
2018-05-17 09:07:23 GMT 56.551937 16.179857 40,000 242 447 0
2018-05-17 09:07:18 GMT 56.557755 16.199009 40,000 242 447 0
2018-05-17 09:07:13 GMT 56.562195 16.213655 40,000 242 447 0
2018-05-17 09:07:08 GMT 56.567253 16.230497 40,000 242 447 0
2018-05-17 09:07:02 GMT 56.573227 16.250195 40,000 242 447 0
2018-05-17 09:06:58 GMT 56.576248 16.260265 40,000 242 447 64
2018-05-17 09:06:51 GMT 56.583408 16.283798 40,000 242 447 0
2018-05-17 09:06:48 GMT 56.586227 16.293306 40,000 242 447 0
2018-05-17 09:06:42 GMT 56.593140 16.316195 40,000 242 446 0
2018-05-17 09:06:38 GMT 56.596252 16.326456 40,000 242 447 0
2018-05-17 09:06:32 GMT 56.603287 16.349783 40,000 242 447 0
2018-05-17 09:06:23 GMT 56.610992 16.375380 40,000 242 447 0
2018-05-17 09:06:19 GMT 56.615108 16.389210 40,000 242 447 0
2018-05-17 09:06:10 GMT 56.624466 16.420307 40,000 242 447 0
2018-05-17 09:06:06 GMT 56.627792 16.431427 40,000 242 447 0
2018-05-17 09:06:03 GMT 56.631409 16.443443 40,000 242 447 0
2018-05-17 09:06:00 GMT 56.634476 16.453743 40,000 242 447 0
2018-05-17 09:05:57 GMT 56.637360 16.463367 40,000 242 447 0
2018-05-17 09:05:51 GMT 56.642483 16.480555 40,000 242 447 0
2018-05-17 09:05:48 GMT 56.645645 16.491079 40,000 242 447 0
2018-05-17 09:05:45 GMT 56.648712 16.501379 40,000 242 447 0
2018-05-17 09:05:38 GMT 56.656914 16.528843 40,000 242 447 0
2018-05-17 09:05:35 GMT 56.658867 16.535398 40,000 242 447 0
2018-05-17 09:05:29 GMT 56.664780 16.555244 40,000 242 447 0
2018-05-17 09:05:26 GMT 56.667667 16.564814 40,000 242 445 0
2018-05-17 09:05:19 GMT 56.674576 16.587982 40,000 242 445 0
2018-05-17 09:05:16 GMT 56.677551 16.598024 40,000 242 446 0
2018-05-17 09:05:08 GMT 56.686195 16.627098 40,000 242 446 0
2018-05-17 09:05:04 GMT 56.689087 16.636820 40,000 242 446 -64
2018-05-17 09:05:00 GMT 56.693207 16.650724 40,000 242 446 0
2018-05-17 09:04:55 GMT 56.697968 16.666603 40,000 242 446 0
2018-05-17 09:04:49 GMT 56.703598 16.685658 40,000 242 446 -64
2018-05-17 09:04:45 GMT 56.707561 16.698954 40,000 242 446 0
2018-05-17 09:04:39 GMT 56.713707 16.719774 40,000 242 446 64
2018-05-17 09:04:36 GMT 56.717197 16.731468 40,000 242 446 64
2018-05-17 09:04:33 GMT 56.719254 16.738443 40,000 242 447 0
2018-05-17 09:04:29 GMT 56.723621 16.753176 40,000 242 447 64
2018-05-17 09:04:23 GMT 56.729301 16.772402 40,000 242 448 0
2018-05-17 09:04:16 GMT 56.735916 16.794748 40,000 242 448 0
2018-05-17 09:04:12 GMT 56.741032 16.812094 40,000 242 448 64
2018-05-17 09:04:03 GMT 56.748669 16.837965 40,000 242 449 0
2018-05-17 09:03:57 GMT 56.754547 16.857920 40,000 242 449 64
2018-05-17 09:03:53 GMT 56.758163 16.870279 40,000 242 449 64
2018-05-17 09:03:43 GMT 56.768219 16.904505 40,000 242 449 0
2018-05-17 09:03:35 GMT 56.776337 16.932163 40,000 242 449 0
2018-05-17 09:03:32 GMT 56.778442 16.939373 40,000 242 449 -64
2018-05-17 09:03:22 GMT 56.788330 16.973019 40,000 242 448 0
2018-05-17 09:03:14 GMT 56.796021 16.999369 40,000 242 447 0
2018-05-17 09:03:10 GMT 56.800049 17.013102 40,000 242 447 0
2018-05-17 09:03:01 GMT 56.808792 17.043056 40,000 243 447 0
2018-05-17 09:02:52 GMT 56.817535 17.072926 40,000 243 447 0
2018-05-17 09:02:42 GMT 56.827759 17.108105 40,000 243 447 0
2018-05-17 09:02:33 GMT 56.836464 17.137962 40,000 243 447 0
2018-05-17 09:02:21 GMT 56.847313 17.175175 40,000 243 448 0
2018-05-17 09:02:11 GMT 56.856949 17.208366 40,000 243 448 0
2018-05-17 09:02:08 GMT 56.860718 17.221424 40,000 243 448 0
2018-05-17 09:02:01 GMT 56.866699 17.242098 40,000 243 449 0
2018-05-17 09:01:48 GMT 56.879944 17.287872 40,000 243 448 0
2018-05-17 09:01:39 GMT 56.888603 17.317820 40,000 243 448 0
2018-05-17 09:01:34 GMT 56.893616 17.335224 40,000 243 448 0
2018-05-17 09:01:30 GMT 56.896751 17.346172 40,000 243 448 0
2018-05-17 09:01:26 GMT 56.900661 17.359638 40,000 243 448 0
2018-05-17 09:01:18 GMT 56.908676 17.387581 40,000 243 448 -64
2018-05-17 09:01:15 GMT 56.911598 17.397648 40,000 243 448 -64
2018-05-17 09:01:10 GMT 56.916443 17.414482 40,000 243 448 0
2018-05-17 09:01:07 GMT 56.919205 17.424145 40,000 243 447 64
2018-05-17 09:00:59 GMT 56.927010 17.451250 40,000 243 447 0
2018-05-17 09:00:56 GMT 56.929893 17.461439 40,000 243 447 64
2018-05-17 09:00:46 GMT 56.939346 17.494354 40,000 243 447 0
2018-05-17 09:00:38 GMT 56.946945 17.520876 40,000 243 446 64
2018-05-17 09:00:27 GMT 56.957336 17.557182 40,000 243 446 0
2018-05-17 09:00:19 GMT 56.964809 17.583441 40,000 243 446 0
2018-05-17 09:00:15 GMT 56.968674 17.596909 40,000 243 446 0
2018-05-17 09:00:07 GMT 56.976494 17.624462 40,000 243 446 0
2018-05-17 08:59:56 GMT 56.986969 17.661142 40,000 243 446 -64
2018-05-17 08:59:46 GMT 56.996326 17.694014 40,000 243 446 0
2018-05-17 08:59:36 GMT 57.005539 17.726526 40,000 243 445 -64
2018-05-17 08:59:30 GMT 57.011307 17.746954 40,000 243 443 -64
2018-05-17 08:59:24 GMT 57.017323 17.768171 40,000 243 445 -64
2018-05-17 08:59:21 GMT 57.020348 17.778803 40,000 243 445 0
2018-05-17 08:59:15 GMT 57.026165 17.799358 40,000 243 445 64
2018-05-17 08:59:11 GMT 57.031006 17.816458 40,000 243 445 0
2018-05-17 08:58:58 GMT 57.042160 17.856131 40,000 243 443 0
2018-05-17 08:58:55 GMT 57.045158 17.866606 40,000 243 443 0
2018-05-17 08:58:52 GMT 57.047997 17.876705 40,000 243 443 0
2018-05-17 08:58:42 GMT 57.056377 17.906385 40,000 243 443 0
2018-05-17 08:58:32 GMT 57.066013 17.940762 40,000 243 443 0
2018-05-17 08:58:27 GMT 57.072006 17.962132 40,000 243 443 0
2018-05-17 08:58:22 GMT 57.076675 17.978697 40,000 243 443 0
2018-05-17 08:58:13 GMT 57.084000 18.004789 40,000 243 443 0
2018-05-17 08:58:10 GMT 57.086884 18.015089 40,000 243 443 64
2018-05-17 08:58:02 GMT 57.094551 18.042475 40,000 243 443 0
2018-05-17 08:57:50 GMT 57.105679 18.082344 40,000 243 442 0
2018-05-17 08:57:46 GMT 57.108719 18.093195 40,000 243 442 0
2018-05-17 08:57:41 GMT 57.114990 18.115683 40,000 243 442 0
2018-05-17 08:57:37 GMT 57.118835 18.129416 40,000 243 442 0
2018-05-17 08:57:30 GMT 57.124252 18.148882 40,000 243 442 0
2018-05-17 08:57:25 GMT 57.128860 18.165451 40,000 243 442 0
2018-05-17 08:57:21 GMT 57.132614 18.178940 40,000 243 442 64
2018-05-17 08:57:13 GMT 57.139481 18.203659 40,000 243 443 -64
2018-05-17 08:57:10 GMT 57.142406 18.214180 40,000 243 443 0
2018-05-17 08:57:07 GMT 57.146225 18.227913 40,000 244 443 0
2018-05-17 08:56:51 GMT 57.160355 18.278933 40,000 244 443 0
2018-05-17 08:56:47 GMT 57.163925 18.291893 40,000 244 443 64
2018-05-17 08:56:42 GMT 57.168686 18.308973 40,000 244 443 64
2018-05-17 08:56:39 GMT 57.171478 18.319187 40,000 244 444 0
2018-05-17 08:56:33 GMT 57.176880 18.338671 40,000 244 444 0
2018-05-17 08:56:28 GMT 57.182556 18.359270 40,000 244 444 0
2018-05-17 08:56:24 GMT 57.186356 18.373003 40,000 244 444 0
2018-05-17 08:56:12 GMT 57.196106 18.408451 40,000 244 444 0
2018-05-17 08:56:06 GMT 57.201714 18.428858 40,000 244 444 0
2018-05-17 08:56:02 GMT 57.205353 18.442097 40,000 244 444 0
2018-05-17 08:55:51 GMT 57.215790 18.480034 40,000 244 443 0
2018-05-17 08:55:46 GMT 57.220276 18.496428 40,000 244 443 0
2018-05-17 08:55:41 GMT 57.224850 18.513115 40,000 244 443 0
2018-05-17 08:55:32 GMT 57.233089 18.543238 40,000 244 443 0
2018-05-17 08:55:29 GMT 57.235931 18.553505 40,000 244 443 0
2018-05-17 08:55:25 GMT 57.239700 18.567427 40,000 244 443 0
2018-05-17 08:55:21 GMT 57.243938 18.582932 40,000 244 443 0
2018-05-17 08:55:15 GMT 57.249527 18.603287 40,000 244 443 64
2018-05-17 08:55:09 GMT 57.254333 18.620968 40,000 244 443 0
2018-05-17 08:55:05 GMT 57.258274 18.635469 40,000 244 444 -64
2018-05-17 08:55:00 GMT 57.262985 18.652639 40,000 244 444 -64
2018-05-17 08:54:53 GMT 57.269669 18.677187 40,000 244 444 0
2018-05-17 08:54:50 GMT 57.272427 18.687389 40,000 244 444 0
2018-05-17 08:54:40 GMT 57.281597 18.721146 40,000 244 444 0
2018-05-17 08:54:33 GMT 57.288021 18.744980 40,000 244 444 -64
2018-05-17 08:54:30 GMT 57.290817 18.755293 40,000 244 444 -64
2018-05-17 08:54:19 GMT 57.300869 18.792204 40,000 244 444 64
2018-05-17 08:54:15 GMT 57.304592 18.806025 40,000 244 444 64
2018-05-17 08:54:09 GMT 57.309715 18.824896 40,000 244 443 0
2018-05-17 08:53:57 GMT 57.321396 18.868246 40,000 244 443 0
2018-05-17 08:53:48 GMT 57.329033 18.896484 40,000 244 443 0
2018-05-17 08:53:40 GMT 57.337189 18.926783 40,000 244 443 64
2018-05-17 08:53:37 GMT 57.339020 18.933563 40,000 244 442 -64
2018-05-17 08:53:32 GMT 57.343651 18.950796 40,000 244 442 0
2018-05-17 08:53:27 GMT 57.347702 18.965858 40,000 244 442 0
2018-05-17 08:53:20 GMT 57.354546 18.991285 40,000 244 442 64
2018-05-17 08:53:17 GMT 57.357197 19.001297 40,000 244 442 0
2018-05-17 08:53:07 GMT 57.366417 19.035673 40,000 244 441 -64
2018-05-17 08:52:57 GMT 57.376465 19.073210 40,000 244 441 0
2018-05-17 08:52:50 GMT 57.381081 19.090517 40,000 244 441 0
2018-05-17 08:52:46 GMT 57.385365 19.106554 40,000 244 441 -64
2018-05-17 08:52:40 GMT 57.390671 19.126400 40,000 244 441 0
2018-05-17 08:52:36 GMT 57.394730 19.141703 40,000 244 441 -64
2018-05-17 08:52:30 GMT 57.399765 19.160585 40,000 244 442 0
2018-05-17 08:52:23 GMT 57.405567 19.182396 40,000 244 442 0
2018-05-17 08:52:18 GMT 57.410019 19.199123 40,000 244 442 0
2018-05-17 08:52:13 GMT 57.415009 19.217834 40,000 244 443 0
2018-05-17 08:52:08 GMT 57.419205 19.233782 40,000 244 443 0
2018-05-17 08:52:03 GMT 57.424118 19.252338 40,000 244 444 0
2018-05-17 08:51:58 GMT 57.428284 19.267893 40,000 244 444 0
2018-05-17 08:51:53 GMT 57.434242 19.290398 40,000 244 444 0
2018-05-17 08:51:47 GMT 57.438011 19.304750 40,000 244 444 0
2018-05-17 08:51:42 GMT 57.442795 19.322805 40,000 244 444 0
2018-05-17 08:51:37 GMT 57.447281 19.339800 40,000 244 444 -64
2018-05-17 08:51:31 GMT 57.452454 19.359369 40,000 244 444 0
2018-05-17 08:51:27 GMT 57.456757 19.375677 40,000 244 445 0
2018-05-17 08:51:20 GMT 57.462360 19.396894 40,000 245 445 -64
2018-05-17 08:51:16 GMT 57.466644 19.413185 40,000 245 445 -64
2018-05-17 08:51:10 GMT 57.471268 19.430695 40,000 245 445 0
2018-05-17 08:51:05 GMT 57.476093 19.448990 40,000 245 445 0
2018-05-17 08:51:01 GMT 57.480469 19.465714 40,000 245 445 -64
2018-05-17 08:50:53 GMT 57.486923 19.490347 40,000 245 445 0
2018-05-17 08:50:50 GMT 57.489872 19.501440 40,000 245 445 0
2018-05-17 08:50:44 GMT 57.494854 19.520578 40,000 245 445 0
2018-05-17 08:50:40 GMT 57.499786 19.539362 40,000 245 445 0
2018-05-17 08:50:33 GMT 57.504593 19.557724 40,000 245 445 64
2018-05-17 08:50:28 GMT 57.509190 19.575333 40,000 245 445 0
2018-05-17 08:50:21 GMT 57.516312 19.602528 40,000 245 445 0
2018-05-17 08:50:17 GMT 57.519482 19.614582 40,000 245 445 0
2018-05-17 08:50:13 GMT 57.523087 19.628448 40,000 245 445 0
2018-05-17 08:50:08 GMT 57.527893 19.646988 40,000 245 445 0
2018-05-17 08:50:03 GMT 57.532841 19.666059 40,000 245 445 0
2018-05-17 08:49:58 GMT 57.536518 19.680058 40,000 245 445 64
2018-05-17 08:49:48 GMT 57.546432 19.718227 40,000 245 444 -64
2018-05-17 08:49:42 GMT 57.551285 19.737110 40,000 245 444 0
2018-05-17 08:49:36 GMT 57.555653 19.753773 40,000 245 444 64
2018-05-17 08:49:29 GMT 57.562958 19.781914 40,000 245 443 0
2018-05-17 08:49:21 GMT 57.570034 19.809414 40,000 245 442 0
2018-05-17 08:49:15 GMT 57.574539 19.826803 40,000 245 442 0
2018-05-17 08:49:08 GMT 57.581451 19.853411 40,000 245 442 0
2018-05-17 08:49:05 GMT 57.584141 19.863901 40,000 245 442 0
2018-05-17 08:49:00 GMT 57.588593 19.881134 40,000 245 442 0
2018-05-17 08:48:56 GMT 57.591122 19.890924 40,000 245 442 0
2018-05-17 08:48:51 GMT 57.595497 19.907934 40,000 245 442 0
2018-05-17 08:48:47 GMT 57.600403 19.927053 40,000 245 442 0
2018-05-17 08:48:44 GMT 57.601784 19.932301 40,000 245 442 0
2018-05-17 08:48:39 GMT 57.606995 19.952459 40,000 245 442 64
2018-05-17 08:48:34 GMT 57.611050 19.968271 40,000 245 442 -64
2018-05-17 08:48:27 GMT 57.616470 19.989452 40,000 245 442 0
2018-05-17 08:48:24 GMT 57.619938 20.002914 40,000 245 442 0
2018-05-17 08:48:18 GMT 57.625340 20.024000 40,025 245 442 0
2018-05-17 08:48:12 GMT 57.629654 20.040951 40,000 245 442 0
2018-05-17 08:48:05 GMT 57.637161 20.070133 40,000 245 441 -64
2018-05-17 08:48:00 GMT 57.640137 20.081892 40,000 245 442 64
2018-05-17 08:47:52 GMT 57.647682 20.111271 40,000 245 442 0
2018-05-17 08:47:44 GMT 57.655655 20.142574 40,000 245 442 0
2018-05-17 08:47:35 GMT 57.662338 20.168924 40,000 245 442 -64
2018-05-17 08:47:32 GMT 57.665279 20.180380 40,000 245 443 0
2018-05-17 08:47:23 GMT 57.673370 20.212183 40,000 245 443 0
2018-05-17 08:47:16 GMT 57.679108 20.234867 40,000 245 443 0
2018-05-17 08:47:12 GMT 57.682922 20.250017 40,000 245 443 0
2018-05-17 08:47:04 GMT 57.689575 20.276213 40,000 245 443 64
2018-05-17 08:47:01 GMT 57.693375 20.291147 40,000 245 443 64
2018-05-17 08:46:58 GMT 57.694656 20.296267 40,000 245 443 0
2018-05-17 08:46:52 GMT 57.700424 20.319128 40,000 245 443 0
2018-05-17 08:46:48 GMT 57.704105 20.333656 40,000 245 443 0
2018-05-17 08:46:41 GMT 57.709740 20.355984 40,000 245 443 0
2018-05-17 08:46:38 GMT 57.712097 20.365305 40,000 245 443 0
2018-05-17 08:46:31 GMT 57.719002 20.392662 40,000 245 442 64
2018-05-17 08:46:27 GMT 57.721985 20.404615 40,000 245 442 0
2018-05-17 08:46:24 GMT 57.724358 20.413927 40,000 245 441 -64
2018-05-17 08:46:19 GMT 57.728779 20.431549 40,000 245 441 -64
2018-05-17 08:46:15 GMT 57.732605 20.446796 40,000 245 441 0
2018-05-17 08:46:11 GMT 57.735764 20.459290 40,000 245 441 0
2018-05-17 08:46:00 GMT 57.745285 20.497210 40,000 245 441 64
2018-05-17 08:45:50 GMT 57.753731 20.531067 40,000 245 441 0
2018-05-17 08:45:38 GMT 57.763962 20.571899 40,000 245 441 0
2018-05-17 08:45:30 GMT 57.771698 20.602909 40,000 245 441 0
2018-05-17 08:45:24 GMT 57.776367 20.621605 40,000 246 441 0
2018-05-17 08:45:19 GMT 57.780624 20.638702 40,000 246 441 0
2018-05-17 08:45:08 GMT 57.790787 20.679548 40,000 246 441 0
2018-05-17 08:44:58 GMT 57.798931 20.712433 40,000 246 441 0
2018-05-17 08:44:47 GMT 57.807732 20.747955 40,000 246 441 0
2018-05-17 08:44:37 GMT 57.816513 20.783386 40,000 246 441 0
2018-05-17 08:44:27 GMT 57.825348 20.819002 40,000 246 440 0
2018-05-17 08:44:20 GMT 57.831985 20.846008 40,000 246 440 0
2018-05-17 08:44:16 GMT 57.834320 20.855330 40,000 246 440 0
2018-05-17 08:44:11 GMT 57.838715 20.873316 40,000 246 440 0
2018-05-17 08:44:06 GMT 57.843250 20.891785 40,000 246 441 0
2018-05-17 08:44:00 GMT 57.847717 20.909729 40,000 246 441 0
2018-05-17 08:43:55 GMT 57.853180 20.932144 40,000 246 441 0
2018-05-17 08:43:50 GMT 57.856567 20.945877 40,000 246 441 0
2018-05-17 08:43:45 GMT 57.861191 20.964661 40,000 246 441 0
2018-05-17 08:43:40 GMT 57.865402 20.981760 40,000 246 441 0
2018-05-17 08:43:37 GMT 57.868065 20.992767 40,000 246 441 64
2018-05-17 08:43:34 GMT 57.869831 21.000000 40,000 246 441 64
2018-05-17 08:43:30 GMT 57.874878 21.020567 40,000 246 442 64
2018-05-17 08:43:24 GMT 57.878864 21.036804 40,000 246 442 0
2018-05-17 08:43:17 GMT 57.885681 21.064602 40,000 246 442 -64
2018-05-17 08:43:12 GMT 57.889805 21.081573 40,000 246 442 0
2018-05-17 08:43:08 GMT 57.892456 21.092377 40,000 246 443 0
2018-05-17 08:43:02 GMT 57.897717 21.113892 40,000 246 443 0
2018-05-17 08:42:58 GMT 57.900742 21.126532 40,000 246 443 0
2018-05-17 08:42:51 GMT 57.906555 21.150366 40,000 246 444 0
2018-05-17 08:42:47 GMT 57.910080 21.164719 40,000 246 444 0
2018-05-17 08:42:41 GMT 57.915436 21.186779 40,000 246 444 -64
2018-05-17 08:42:38 GMT 57.918137 21.197943 40,000 246 444 -64
2018-05-17 08:42:34 GMT 57.921478 21.211676 40,025 246 444 -64
2018-05-17 08:42:31 GMT 57.923878 21.221649 40,000 246 445 -64
2018-05-17 08:42:28 GMT 57.926331 21.231699 40,000 246 445 -64
2018-05-17 08:42:24 GMT 57.929745 21.245636 40,000 246 444 0
2018-05-17 08:42:20 GMT 57.933334 21.260584 40,000 246 444 -64
2018-05-17 08:42:16 GMT 57.936905 21.275290 40,000 246 444 -64
2018-05-17 08:42:12 GMT 57.940498 21.290131 40,000 246 446 -64
2018-05-17 08:42:08 GMT 57.943569 21.302856 40,025 246 446 0
2018-05-17 08:42:04 GMT 57.946690 21.315674 40,025 246 446 64
2018-05-17 08:41:58 GMT 57.952515 21.339878 40,000 246 447 64
2018-05-17 08:41:54 GMT 57.956001 21.354218 40,000 246 447 64
2018-05-17 08:41:50 GMT 57.959427 21.368498 40,000 246 447 -64
2018-05-17 08:41:45 GMT 57.963730 21.386353 40,000 246 447 -64
2018-05-17 08:41:42 GMT 57.965424 21.393393 40,000 246 447 -64
2018-05-17 08:41:39 GMT 57.968056 21.404205 40,000 246 447 0
2018-05-17 08:41:33 GMT 57.972992 21.424805 40,000 246 447 0
2018-05-17 08:41:29 GMT 57.976959 21.441149 40,000 246 447 0
2018-05-17 08:41:24 GMT 57.981556 21.460419 40,000 246 447 0
2018-05-17 08:41:16 GMT 57.988586 21.489624 40,000 246 446 0
2018-05-17 08:41:12 GMT 57.990692 21.498472 40,000 246 446 -64
2018-05-17 08:41:08 GMT 57.994919 21.516083 40,000 246 446 0
2018-05-17 08:41:03 GMT 57.999481 21.535152 40,000 246 446 0
2018-05-17 08:40:57 GMT 58.003437 21.551880 40,000 246 445 0
2018-05-17 08:40:54 GMT 58.005951 21.562317 40,000 246 445 0
2018-05-17 08:40:51 GMT 58.008545 21.573250 40,000 246 445 0
2018-05-17 08:40:47 GMT 58.011841 21.586983 40,000 246 444 0
2018-05-17 08:40:41 GMT 58.016983 21.608551 40,000 246 444 0
2018-05-17 08:40:34 GMT 58.023148 21.634562 40,000 246 445 0
2018-05-17 08:40:31 GMT 58.025620 21.644926 40,000 246 445 0
2018-05-17 08:40:25 GMT 58.031090 21.668060 40,000 246 445 0
2018-05-17 08:40:21 GMT 58.034637 21.683025 40,000 246 445 0
2018-05-17 08:40:17 GMT 58.038437 21.699060 40,000 246 446 0
2018-05-17 08:40:13 GMT 58.040726 21.708618 40,000 246 446 0
2018-05-17 08:40:10 GMT 58.043289 21.719528 40,000 246 446 -64
2018-05-17 08:40:05 GMT 58.047363 21.736715 40,000 247 447 0
2018-05-17 08:40:00 GMT 58.052582 21.758690 40,000 246 448 64
2018-05-17 08:39:56 GMT 58.055191 21.769852 40,000 246 448 0
2018-05-17 08:39:52 GMT 58.058167 21.782345 40,000 246 448 0
2018-05-17 08:39:49 GMT 58.061005 21.794394 40,000 246 448 -64
2018-05-17 08:39:45 GMT 58.064419 21.808868 40,000 246 448 -64
2018-05-17 08:39:41 GMT 58.067368 21.821327 40,000 246 448 -64
2018-05-17 08:39:38 GMT 58.069962 21.832397 40,025 247 449 0
2018-05-17 08:39:32 GMT 58.075470 21.855795 40,000 247 449 -64
2018-05-17 08:39:27 GMT 58.079548 21.873230 40,000 247 448 64
2018-05-17 08:39:24 GMT 58.081970 21.883392 40,000 247 449 0
2018-05-17 08:39:21 GMT 58.084625 21.894745 40,000 247 449 -64
2018-05-17 08:39:18 GMT 58.087692 21.907890 40,000 247 448 0
2018-05-17 08:39:15 GMT 58.090397 21.919373 40,000 247 448 0
2018-05-17 08:39:10 GMT 58.093597 21.932875 40,000 247 448 64
2018-05-17 08:39:06 GMT 58.097008 21.947571 40,000 247 448 0
2018-05-17 08:39:01 GMT 58.101894 21.968353 40,000 247 448 0
2018-05-17 08:38:56 GMT 58.105133 21.982136 40,000 247 448 0
2018-05-17 08:38:53 GMT 58.107761 21.993530 40,000 247 447 0
2018-05-17 08:38:50 GMT 58.110764 22.006235 40,000 247 447 0
2018-05-17 08:38:43 GMT 58.117172 22.033701 40,000 247 447 0
2018-05-17 08:38:40 GMT 58.119072 22.041779 40,000 247 447 64
2018-05-17 08:38:33 GMT 58.124611 22.065582 40,000 247 447 -64
2018-05-17 08:38:29 GMT 58.127930 22.079863 40,000 247 447 0
2018-05-17 08:38:22 GMT 58.133606 22.104315 40,000 247 447 -64
2018-05-17 08:38:18 GMT 58.136623 22.117126 40,000 247 447 0
2018-05-17 08:38:13 GMT 58.141697 22.139099 40,000 247 447 0
2018-05-17 08:38:08 GMT 58.145142 22.153931 40,000 247 448 64
2018-05-17 08:38:04 GMT 58.148483 22.168371 40,000 247 448 0
2018-05-17 08:38:01 GMT 58.151093 22.179537 40,000 247 448 0
2018-05-17 08:37:58 GMT 58.153801 22.191284 40,000 247 448 0
2018-05-17 08:37:54 GMT 58.157150 22.205750 40,000 247 448 0
2018-05-17 08:37:51 GMT 58.159790 22.217279 40,000 247 448 0
2018-05-17 08:37:46 GMT 58.163681 22.234114 40,000 247 449 0
2018-05-17 08:37:43 GMT 58.165764 22.243103 40,000 247 449 0
2018-05-17 08:37:40 GMT 58.168091 22.253174 40,000 247 449 64
2018-05-17 08:37:36 GMT 58.171463 22.267870 40,000 247 449 0
2018-05-17 08:37:33 GMT 58.174377 22.280457 40,000 247 450 0
2018-05-17 08:37:27 GMT 58.179405 22.302429 40,000 247 450 -64
2018-05-17 08:37:22 GMT 58.183182 22.318726 40,000 247 450 0
2018-05-17 08:37:17 GMT 58.188766 22.342913 40,000 247 450 64
2018-05-17 08:37:12 GMT 58.191833 22.356262 40,000 247 450 0
2018-05-17 08:37:09 GMT 58.194439 22.367706 40,000 247 449 64
2018-05-17 08:37:06 GMT 58.197094 22.379242 40,000 247 449 0
2018-05-17 08:36:59 GMT 58.203659 22.407623 40,000 247 449 -128
2018-05-17 08:36:55 GMT 58.205708 22.416504 40,000 247 448 -64
2018-05-17 08:36:52 GMT 58.208954 22.430538 40,000 247 448 0
2018-05-17 08:36:48 GMT 58.211746 22.442499 40,000 247 448 0
2018-05-17 08:36:44 GMT 58.214828 22.455780 40,000 247 448 0
2018-05-17 08:36:41 GMT 58.217857 22.468781 40,000 247 448 64
2018-05-17 08:36:38 GMT 58.220322 22.479309 40,000 247 447 -64
2018-05-17 08:36:35 GMT 58.222916 22.490431 40,000 246 447 -64
2018-05-17 08:36:31 GMT 58.227081 22.507975 40,025 246 447 0
2018-05-17 08:36:27 GMT 58.229542 22.518311 40,025 246 447 64
2018-05-17 08:36:24 GMT 58.231915 22.528015 40,000 246 446 64
2018-05-17 08:36:20 GMT 58.235641 22.543413 40,000 245 446 64
2018-05-17 08:36:17 GMT 58.238152 22.553650 40,000 245 447 -64
2018-05-17 08:36:14 GMT 58.240860 22.564411 40,000 245 447 0
2018-05-17 08:36:10 GMT 58.244858 22.580658 40,000 245 447 0
2018-05-17 08:36:07 GMT 58.246906 22.588806 40,000 245 448 0
2018-05-17 08:36:03 GMT 58.250351 22.602631 40,000 245 448 64
2018-05-17 08:35:59 GMT 58.253860 22.616774 40,000 245 449 0
2018-05-17 08:35:51 GMT 58.260918 22.645111 40,000 245 449 -64
2018-05-17 08:35:46 GMT 58.265854 22.664978 40,000 245 448 0
2018-05-17 08:35:42 GMT 58.269203 22.678345 40,000 245 448 64
2018-05-17 08:35:38 GMT 58.274139 22.698395 40,000 245 448 0
2018-05-17 08:35:32 GMT 58.277985 22.713968 40,000 245 447 64
2018-05-17 08:35:27 GMT 58.282837 22.733372 40,000 245 447 -64
2018-05-17 08:35:21 GMT 58.287266 22.751404 40,000 245 447 64
2018-05-17 08:35:16 GMT 58.291641 22.768890 40,000 245 446 64
2018-05-17 08:35:10 GMT 58.296890 22.790163 40,000 245 446 64
2018-05-17 08:35:07 GMT 58.300278 22.803896 40,000 245 446 0
2018-05-17 08:35:00 GMT 58.305862 22.826576 40,000 245 446 64
2018-05-17 08:34:56 GMT 58.309238 22.840302 40,000 245 445 0
2018-05-17 08:34:53 GMT 58.311474 22.849274 40,000 245 445 0
2018-05-17 08:34:50 GMT 58.315018 22.863701 40,000 245 445 0
2018-05-17 08:34:45 GMT 58.319340 22.881226 40,000 245 444 0
2018-05-17 08:34:38 GMT 58.324905 22.903925 40,000 245 444 0
2018-05-17 08:34:35 GMT 58.327103 22.912785 40,000 245 444 -64
2018-05-17 08:34:29 GMT 58.332886 22.936249 40,000 245 444 64
2018-05-17 08:34:25 GMT 58.336006 22.948975 40,000 245 444 0
2018-05-17 08:34:18 GMT 58.341843 22.972855 40,000 246 444 0
2018-05-17 08:34:15 GMT 58.345047 22.985968 40,000 246 444 64
2018-05-17 08:34:07 GMT 58.351318 23.011662 40,000 246 444 64
2018-05-17 08:34:04 GMT 58.354065 23.022915 40,000 246 444 0
2018-05-17 08:33:57 GMT 58.359886 23.046753 40,000 246 444 -128
2018-05-17 08:33:52 GMT 58.364170 23.064240 40,000 246 444 -192
2018-05-17 08:33:44 GMT 58.371689 23.095121 40,000 246 443 128
2018-05-17 08:33:41 GMT 58.373573 23.102783 40,000 246 443 128
2018-05-17 08:33:34 GMT 58.380230 23.130249 40,000 246 444 0
2018-05-17 08:33:29 GMT 58.384651 23.148376 40,000 246 443 0
2018-05-17 08:33:24 GMT 58.388855 23.165648 40,000 246 444 0
2018-05-17 08:33:21 GMT 58.390705 23.173370 40,000 246 444 64
2018-05-17 08:33:16 GMT 58.395813 23.194353 40,000 246 444 -64
2018-05-17 08:33:12 GMT 58.399319 23.208801 40,000 246 443 -64
2018-05-17 08:33:06 GMT 58.404858 23.231689 40,000 246 443 0
2018-05-17 08:33:02 GMT 58.407787 23.243866 40,000 246 443 64
2018-05-17 08:32:55 GMT 58.413849 23.268866 40,000 246 443 0
2018-05-17 08:32:50 GMT 58.417328 23.283306 40,000 246 443 0
2018-05-17 08:32:44 GMT 58.422871 23.306396 40,000 246 443 0
2018-05-17 08:32:40 GMT 58.426346 23.320608 40,000 246 443 -64
2018-05-17 08:32:37 GMT 58.429047 23.331860 40,000 246 443 -64
2018-05-17 08:32:32 GMT 58.432983 23.348339 40,000 246 443 0
2018-05-17 08:32:29 GMT 58.435638 23.359325 40,000 246 443 64
2018-05-17 08:32:22 GMT 58.441677 23.384491 40,000 246 443 0
2018-05-17 08:32:19 GMT 58.444427 23.396006 40,000 246 443 0
2018-05-17 08:32:14 GMT 58.449005 23.414879 40,000 246 443 -64
2018-05-17 08:32:09 GMT 58.452805 23.430817 40,000 246 443 -64
2018-05-17 08:32:03 GMT 58.457932 23.452267 40,000 246 443 -64
2018-05-17 08:31:59 GMT 58.461277 23.466156 40,000 246 443 0
2018-05-17 08:31:52 GMT 58.467281 23.491241 40,000 246 443 0
2018-05-17 08:31:49 GMT 58.469696 23.501350 40,000 246 444 -64
2018-05-17 08:31:42 GMT 58.476406 23.529602 40,000 246 443 64
2018-05-17 08:31:39 GMT 58.478165 23.536968 40,000 246 444 64
2018-05-17 08:31:31 GMT 58.484974 23.565399 40,000 246 444 0
2018-05-17 08:31:28 GMT 58.487045 23.574091 40,000 246 445 0
2018-05-17 08:31:22 GMT 58.494144 23.603851 40,000 246 446 0
2018-05-17 08:31:19 GMT 58.495880 23.611303 40,000 246 446 -64
2018-05-17 08:31:09 GMT 58.504211 23.646299 40,000 246 445 0
2018-05-17 08:31:06 GMT 58.505997 23.653742 40,000 246 445 0
2018-05-17 08:30:58 GMT 58.513325 23.684601 40,000 246 444 0
2018-05-17 08:30:49 GMT 58.521191 23.717926 40,025 246 444 0
2018-05-17 08:30:46 GMT 58.522980 23.725330 40,000 246 444 64
2018-05-17 08:30:40 GMT 58.528610 23.749252 40,000 246 443 64
2018-05-17 08:30:36 GMT 58.531082 23.759794 40,000 246 443 64
2018-05-17 08:30:29 GMT 58.537064 23.785034 40,000 246 443 0
2018-05-17 08:30:26 GMT 58.540741 23.800638 40,000 246 443 -64
2018-05-17 08:30:20 GMT 58.545818 23.822205 40,000 246 443 -64
2018-05-17 08:30:15 GMT 58.549213 23.836578 40,000 246 443 -64
2018-05-17 08:30:09 GMT 58.554382 23.858496 40,000 246 442 -64
2018-05-17 08:30:04 GMT 58.558044 23.874178 40,000 246 441 0
2018-05-17 08:29:59 GMT 58.562763 23.894165 40,000 246 440 64
2018-05-17 08:29:54 GMT 58.566765 23.911194 40,000 246 440 0
2018-05-17 08:29:49 GMT 58.571320 23.930702 40,000 246 440 64
2018-05-17 08:29:44 GMT 58.575146 23.946899 40,000 246 440 0
2018-05-17 08:29:39 GMT 58.579834 23.967030 40,000 246 440 0
2018-05-17 08:29:33 GMT 58.584038 23.984985 40,000 246 440 0
2018-05-17 08:29:28 GMT 58.588394 24.003620 40,000 246 440 0
2018-05-17 08:29:22 GMT 58.593208 24.024170 40,000 246 441 0
2018-05-17 08:29:18 GMT 58.597092 24.040920 40,000 246 441 0
2018-05-17 08:29:13 GMT 58.601028 24.057844 40,000 246 442 0
2018-05-17 08:29:07 GMT 58.605450 24.076721 40,000 246 442 0
2018-05-17 08:29:02 GMT 58.610825 24.100018 40,000 246 442 0
2018-05-17 08:28:57 GMT 58.614212 24.114635 40,000 247 443 0
2018-05-17 08:28:52 GMT 58.618393 24.132568 40,000 247 443 0
2018-05-17 08:28:47 GMT 58.622536 24.150421 40,000 247 444 0
2018-05-17 08:28:42 GMT 58.626984 24.169657 40,000 247 444 0
2018-05-17 08:28:36 GMT 58.631752 24.190155 40,000 247 445 64
2018-05-17 08:28:30 GMT 58.636276 24.209791 40,000 247 445 64
2018-05-17 08:28:26 GMT 58.640083 24.226227 40,000 247 445 -64
2018-05-17 08:28:20 GMT 58.644379 24.244877 40,000 247 445 0
2018-05-17 08:28:16 GMT 58.648651 24.263489 40,000 247 445 0
2018-05-17 08:28:10 GMT 58.653816 24.285736 40,000 247 445 0
2018-05-17 08:28:04 GMT 58.658066 24.304239 40,000 247 445 0
2018-05-17 08:27:59 GMT 58.662323 24.322756 40,000 247 445 0
2018-05-17 08:27:55 GMT 58.665829 24.337921 40,000 247 445 -64
2018-05-17 08:27:51 GMT 58.669739 24.354950 40,000 247 445 0
2018-05-17 08:27:48 GMT 58.670975 24.360411 40,000 247 444 -64
2018-05-17 08:27:44 GMT 58.674545 24.376003 40,000 247 444 0
2018-05-17 08:27:38 GMT 58.679626 24.397978 40,000 247 444 0
2018-05-17 08:27:34 GMT 58.683193 24.413544 40,000 247 444 64
2018-05-17 08:27:28 GMT 58.688049 24.434746 40,000 247 444 0
2018-05-17 08:27:24 GMT 58.691391 24.449364 40,000 247 444 64
2018-05-17 08:27:17 GMT 58.697021 24.473995 40,000 247 444 0
2018-05-17 08:27:13 GMT 58.700089 24.487373 40,000 247 444 0
2018-05-17 08:27:07 GMT 58.705257 24.510132 40,000 247 444 0
2018-05-17 08:27:03 GMT 58.708099 24.522583 40,000 247 444 0
2018-05-17 08:26:59 GMT 58.713078 24.544373 40,000 247 444 0
2018-05-17 08:26:56 GMT 58.713917 24.548035 40,000 247 444 0
2018-05-17 08:26:53 GMT 58.716759 24.560577 40,000 247 444 0
2018-05-17 08:26:46 GMT 58.722111 24.584198 40,000 247 444 -64
2018-05-17 08:26:42 GMT 58.725357 24.598301 40,000 247 445 0
2018-05-17 08:26:37 GMT 58.730255 24.619904 40,000 247 445 0
2018-05-17 08:26:33 GMT 58.733467 24.634003 40,000 247 445 0
2018-05-17 08:26:26 GMT 58.739410 24.660143 40,000 247 445 -64
2018-05-17 08:26:23 GMT 58.741882 24.671217 40,000 247 445 0
2018-05-17 08:26:15 GMT 58.748016 24.698330 40,000 247 445 0
2018-05-17 08:26:12 GMT 58.750626 24.709846 40,000 247 445 64
2018-05-17 08:26:04 GMT 58.756989 24.737844 40,000 247 444 -64
2018-05-17 08:26:01 GMT 58.759167 24.747437 40,000 247 444 0
2018-05-17 08:25:56 GMT 58.763680 24.767578 40,000 247 444 0
2018-05-17 08:25:52 GMT 58.767059 24.782587 40,000 247 443 0
2018-05-17 08:25:44 GMT 58.773411 24.810791 40,000 247 443 64
2018-05-17 08:25:40 GMT 58.776077 24.822544 40,000 247 443 0
2018-05-17 08:25:33 GMT 58.782303 24.850159 40,000 247 443 0
2018-05-17 08:25:30 GMT 58.784119 24.858215 40,000 247 443 0
2018-05-17 08:25:24 GMT 58.789581 24.882616 40,000 247 443 -64
2018-05-17 08:25:20 GMT 58.792313 24.894836 40,000 247 443 0
2018-05-17 08:25:13 GMT 58.798595 24.922760 40,000 247 443 -64
2018-05-17 08:25:10 GMT 58.800690 24.932190 40,000 247 443 0
2018-05-17 08:25:05 GMT 58.805420 24.953230 40,000 247 443 -64
2018-05-17 08:25:02 GMT 58.807907 24.964325 40,000 247 443 -64
2018-05-17 08:24:59 GMT 58.809208 24.970184 40,025 247 443 0
2018-05-17 08:24:56 GMT 58.812149 24.983442 40,025 247 443 64
2018-05-17 08:24:51 GMT 58.816471 25.002686 40,000 247 443 0
2018-05-17 08:24:48 GMT 58.819359 25.015778 40,000 247 443 64
2018-05-17 08:24:41 GMT 58.824600 25.039259 40,000 247 443 0
2018-05-17 08:24:38 GMT 58.827438 25.052017 40,000 247 444 0
2018-05-17 08:24:29 GMT 58.833801 25.080635 40,000 247 446 0
2018-05-17 08:24:19 GMT 58.842075 25.117859 40,000 247 447 0
2018-05-17 08:24:08 GMT 58.850639 25.156513 40,000 247 447 64
2018-05-17 08:23:58 GMT 58.858929 25.194113 40,000 247 448 0
2018-05-17 08:23:48 GMT 58.867218 25.231659 40,025 247 447 -64
2018-05-17 08:23:38 GMT 58.875267 25.268175 40,000 247 447 0
2018-05-17 08:23:27 GMT 58.884201 25.308838 40,000 247 447 0
2018-05-17 08:23:16 GMT 58.892990 25.348755 40,000 248 447 64
2018-05-17 08:23:06 GMT 58.901058 25.385616 40,000 248 446 0
2018-05-17 08:22:55 GMT 58.909763 25.425394 40,000 248 446 -64
2018-05-17 08:22:47 GMT 58.915695 25.452667 40,000 248 445 0
2018-05-17 08:22:44 GMT 58.918095 25.463562 40,000 248 445 0
2018-05-17 08:22:34 GMT 58.926334 25.501446 40,000 248 445 -64
2018-05-17 08:22:30 GMT 58.929977 25.518219 40,000 248 443 0
2018-05-17 08:22:23 GMT 58.934784 25.540192 40,025 248 443 0
2018-05-17 08:22:13 GMT 58.943047 25.578255 40,000 248 443 0
2018-05-17 08:22:02 GMT 58.951473 25.617086 40,000 248 444 64
2018-05-17 08:21:52 GMT 58.959824 25.655640 40,000 248 445 0
2018-05-17 08:21:42 GMT 58.967789 25.692810 40,000 248 446 -64
2018-05-17 08:21:34 GMT 58.974564 25.724203 40,000 248 446 -64
2018-05-17 08:21:31 GMT 58.977589 25.738127 40,000 248 446 0
2018-05-17 08:21:23 GMT 58.982941 25.763035 40,000 248 446 0
2018-05-17 08:21:19 GMT 58.985504 25.774933 40,000 248 446 64
2018-05-17 08:21:13 GMT 58.990768 25.799377 40,000 248 446 64
2018-05-17 08:21:09 GMT 58.993835 25.813892 40,000 248 446 0
2018-05-17 08:21:02 GMT 58.998817 25.837002 40,000 248 446 0
2018-05-17 08:20:58 GMT 59.002029 25.851967 40,000 248 447 0
2018-05-17 08:20:52 GMT 59.007057 25.875549 40,000 248 447 0
2018-05-17 08:20:47 GMT 59.010773 25.892761 40,000 248 447 0
2018-05-17 08:20:42 GMT 59.015305 25.914185 40,000 248 447 0
2018-05-17 08:20:37 GMT 59.018509 25.929016 40,000 248 447 0
2018-05-17 08:20:31 GMT 59.023590 25.952911 40,000 248 446 0
2018-05-17 08:20:26 GMT 59.027351 25.970638 40,000 248 446 64
2018-05-17 08:20:22 GMT 59.031418 25.989807 40,000 248 446 0
2018-05-17 08:20:16 GMT 59.035408 26.008427 40,000 248 446 0
2018-05-17 08:20:11 GMT 59.039200 26.026428 40,000 248 446 0
2018-05-17 08:20:06 GMT 59.043552 26.046783 40,000 248 446 0
2018-05-17 08:20:00 GMT 59.047577 26.065979 40,000 248 446 0
2018-05-17 08:19:56 GMT 59.051376 26.083832 40,000 248 446 -64
2018-05-17 08:19:50 GMT 59.055496 26.103241 40,000 248 446 0
2018-05-17 08:19:45 GMT 59.059708 26.123291 40,000 248 446 0
2018-05-17 08:19:40 GMT 59.063507 26.141235 40,000 248 446 0
2018-05-17 08:19:34 GMT 59.067902 26.161951 40,000 248 446 0
2018-05-17 08:19:30 GMT 59.071529 26.179283 40,000 248 446 0
2018-05-17 08:19:23 GMT 59.076557 26.203150 40,000 248 447 0
2018-05-17 08:19:19 GMT 59.079575 26.217682 40,000 248 447 64
2018-05-17 08:19:13 GMT 59.084381 26.240561 40,000 248 447 64
2018-05-17 08:19:10 GMT 59.087357 26.254669 40,000 248 447 0
2018-05-17 08:19:03 GMT 59.092484 26.279297 40,000 248 447 -64
2018-05-17 08:18:59 GMT 59.095459 26.293503 40,000 248 447 0
2018-05-17 08:18:52 GMT 59.100815 26.318939 40,000 248 447 0
2018-05-17 08:18:49 GMT 59.103653 26.332523 40,000 248 447 0
2018-05-17 08:18:41 GMT 59.109421 26.360321 40,000 248 447 0
2018-05-17 08:18:38 GMT 59.111389 26.369751 40,000 248 447 0
2018-05-17 08:18:32 GMT 59.117058 26.396927 40,000 248 447 0
2018-05-17 08:18:29 GMT 59.119339 26.407818 40,000 248 447 64
2018-05-17 08:18:21 GMT 59.125076 26.435577 40,000 249 446 -64
2018-05-17 08:18:18 GMT 59.127346 26.446365 40,000 249 446 0
2018-05-17 08:18:11 GMT 59.133316 26.475128 40,000 249 446 0
2018-05-17 08:18:08 GMT 59.135216 26.484343 40,000 249 446 0
2018-05-17 08:18:00 GMT 59.141144 26.513031 40,000 249 446 0
2018-05-17 08:17:57 GMT 59.143223 26.522985 40,000 249 446 0
2018-05-17 08:17:47 GMT 59.151367 26.562479 40,000 249 447 0
2018-05-17 08:17:37 GMT 59.159142 26.600079 40,000 249 447 0
2018-05-17 08:17:27 GMT 59.166779 26.637177 40,000 249 448 64
2018-05-17 08:17:16 GMT 59.174652 26.675446 40,000 249 450 64
2018-05-17 08:17:06 GMT 59.182800 26.715088 40,000 249 450 -128
2018-05-17 08:16:56 GMT 59.190765 26.754181 40,000 249 451 0
2018-05-17 08:16:46 GMT 59.198685 26.792816 40,000 249 451 64
2018-05-17 08:16:35 GMT 59.206577 26.831739 40,000 249 450 0
2018-05-17 08:16:24 GMT 59.214725 26.871706 40,000 249 450 0
2018-05-17 08:16:15 GMT 59.222305 26.909088 40,000 249 450 0
2018-05-17 08:16:04 GMT 59.230366 26.948799 40,000 249 450 -64
2018-05-17 08:15:54 GMT 59.238235 26.987631 40,000 249 450 0
2018-05-17 08:15:45 GMT 59.244473 27.018600 40,000 249 451 -64
2018-05-17 08:15:42 GMT 59.246658 27.029388 40,000 249 451 -128
2018-05-17 08:15:34 GMT 59.254017 27.065956 40,000 249 450 64
2018-05-17 08:15:22 GMT 59.261993 27.105652 40,000 249 449 64
2018-05-17 08:15:12 GMT 59.269333 27.142197 40,000 249 449 -128
2018-05-17 08:15:04 GMT 59.276047 27.175690 40,000 249 449 64
2018-05-17 08:14:58 GMT 59.279991 27.195518 40,000 249 450 0
2018-05-17 08:14:55 GMT 59.283463 27.213409 40,000 249 450 0
2018-05-17 08:14:52 GMT 59.285110 27.220917 40,000 249 450 -64
2018-05-17 08:14:42 GMT 59.292606 27.258501 40,000 249 450 0
2018-05-17 08:14:32 GMT 59.300148 27.296478 40,000 249 450 0
2018-05-17 08:14:22 GMT 59.307320 27.332470 40,000 249 451 0
2018-05-17 08:14:14 GMT 59.314301 27.367605 40,025 249 451 64
2018-05-17 08:14:11 GMT 59.315872 27.375458 40,000 249 451 0
2018-05-17 08:14:01 GMT 59.323242 27.412628 40,000 249 451 0
2018-05-17 08:13:50 GMT 59.331665 27.455292 40,000 249 452 -64
2018-05-17 08:13:41 GMT 59.339127 27.493011 40,000 249 452 0
2018-05-17 08:13:32 GMT 59.346268 27.529266 40,000 249 451 0
2018-05-17 08:13:29 GMT 59.347118 27.533728 40,000 249 451 -128
2018-05-17 08:13:19 GMT 59.354553 27.571472 40,000 249 451 -64
2018-05-17 08:13:12 GMT 59.360550 27.602051 40,025 250 449 128
2018-05-17 08:13:09 GMT 59.361973 27.609495 40,025 250 449 64
2018-05-17 08:12:59 GMT 59.369797 27.649567 40,000 250 449 64
2018-05-17 08:12:48 GMT 59.377705 27.690092 40,000 250 450 0
2018-05-17 08:12:38 GMT 59.386185 27.733521 40,000 250 451 0
2018-05-17 08:12:27 GMT 59.393372 27.770599 40,000 250 451 0
2018-05-17 08:12:19 GMT 59.399212 27.800714 40,025 250 451 -64
2018-05-17 08:12:16 GMT 59.401588 27.812931 40,000 250 451 0
2018-05-17 08:12:12 GMT 59.404518 27.828180 40,000 250 452 0
2018-05-17 08:12:07 GMT 59.407837 27.845123 40,000 250 452 0
2018-05-17 08:12:03 GMT 59.411499 27.863983 40,000 250 452 64
2018-05-17 08:11:55 GMT 59.416992 27.892456 40,000 250 452 64
2018-05-17 08:11:45 GMT 59.424820 27.932739 40,000 250 453 64
2018-05-17 08:11:38 GMT 59.430679 27.962860 40,000 249 454 0
2018-05-17 08:11:34 GMT 59.432869 27.974222 40,000 249 454 0
2018-05-17 08:11:27 GMT 59.438324 28.002045 40,000 250 453 0
2018-05-17 08:11:24 GMT 59.440876 28.015326 40,000 250 454 -64
2018-05-17 08:11:17 GMT 59.445236 28.039398 40,000 252 454 0
2018-05-17 08:11:13 GMT 59.447952 28.055199 40,000 253 453 -64
2018-05-17 08:11:06 GMT 59.452236 28.081812 40,025 254 453 0
2018-05-17 08:11:02 GMT 59.454609 28.097630 40,000 255 453 128
2018-05-17 08:10:57 GMT 59.458054 28.122158 40,000 256 454 64
2018-05-17 08:10:52 GMT 59.459930 28.136536 40,000 256 454 64
2018-05-17 08:10:46 GMT 59.462952 28.161621 40,000 258 455 -64
2018-05-17 08:10:41 GMT 59.465271 28.182585 40,000 259 455 0
2018-05-17 08:10:36 GMT 59.467255 28.201813 40,000 259 455 0
2018-05-17 08:10:31 GMT 59.469315 28.222595 40,000 259 455 0
2018-05-17 08:10:28 GMT 59.470551 28.234589 40,000 259 455 0
2018-05-17 08:10:25 GMT 59.471695 28.246134 40,000 259 455 0
2018-05-17 08:10:21 GMT 59.473743 28.266212 40,000 259 455 0
2018-05-17 08:10:16 GMT 59.475792 28.286671 40,000 259 455 0
2018-05-17 08:10:09 GMT 59.477921 28.308014 40,000 259 455 -64
2018-05-17 08:10:04 GMT 59.479980 28.328796 40,000 259 455 0
2018-05-17 08:09:58 GMT 59.482353 28.352682 40,000 259 454 64
2018-05-17 08:09:54 GMT 59.484192 28.371002 40,000 259 454 0
2018-05-17 08:09:48 GMT 59.486572 28.395081 40,000 259 454 0
2018-05-17 08:09:44 GMT 59.488129 28.410553 40,000 259 455 0
2018-05-17 08:09:35 GMT 59.492203 28.451935 40,000 259 455 -64
2018-05-17 08:09:27 GMT 59.495110 28.481394 40,000 259 454 -64
2018-05-17 08:09:24 GMT 59.496136 28.491812 40,000 260 454 -64
2018-05-17 08:09:17 GMT 59.499298 28.523916 40,025 260 454 0
2018-05-17 08:09:14 GMT 59.500324 28.534525 40,025 260 454 0
2018-05-17 08:09:03 GMT 59.504379 28.575806 40,000 260 454 0
2018-05-17 08:08:54 GMT 59.508316 28.615906 40,000 260 454 -64
2018-05-17 08:08:43 GMT 59.512333 28.657364 40,000 260 454 0
2018-05-17 08:08:32 GMT 59.516647 28.701782 40,000 260 454 0
2018-05-17 08:08:22 GMT 59.520527 28.741844 40,000 260 454 0
2018-05-17 08:08:12 GMT 59.524750 28.785461 40,000 260 453 64
2018-05-17 08:08:02 GMT 59.528580 28.825474 40,000 260 454 0
2018-05-17 08:07:51 GMT 59.532623 28.867950 40,000 260 454 0
2018-05-17 08:07:41 GMT 59.537052 28.914595 40,000 260 454 0
2018-05-17 08:07:30 GMT 59.540909 28.955200 40,000 260 455 -64
2018-05-17 08:07:22 GMT 59.543930 28.987152 40,000 260 455 0
2018-05-17 08:07:19 GMT 59.545074 28.999329 40,000 260 455 0
2018-05-17 08:07:13 GMT 59.547623 29.026258 40,000 260 454 0
2018-05-17 08:07:09 GMT 59.549065 29.042074 40,000 260 454 0
2018-05-17 08:07:00 GMT 59.552261 29.075958 40,000 260 454 128
2018-05-17 08:06:57 GMT 59.553177 29.085938 40,000 260 454 0
2018-05-17 08:06:50 GMT 59.555954 29.115379 40,000 260 454 0
2018-05-17 08:06:47 GMT 59.557159 29.128235 40,000 260 454 0
2018-05-17 08:06:40 GMT 59.559814 29.157166 40,000 260 454 64
2018-05-17 08:06:36 GMT 59.561401 29.174006 40,000 260 454 0
2018-05-17 08:06:30 GMT 59.563568 29.197449 40,000 260 454 192
2018-05-17 08:06:26 GMT 59.565544 29.218803 40,000 260 454 -128
2018-05-17 08:06:19 GMT 59.567688 29.241943 40,000 260 453 -64
2018-05-17 08:06:15 GMT 59.569244 29.258881 40,000 260 453 0
2018-05-17 08:06:08 GMT 59.571781 29.286331 40,000 260 453 64
2018-05-17 08:06:04 GMT 59.573227 29.302185 40,000 260 453 0
2018-05-17 08:05:59 GMT 59.575104 29.322784 40,000 260 453 0
2018-05-17 08:05:54 GMT 59.577301 29.346497 40,000 260 453 64
2018-05-17 08:05:49 GMT 59.579044 29.365414 40,000 260 453 128
2018-05-17 08:05:41 GMT 59.582115 29.399319 40,000 260 453 0
2018-05-17 08:05:38 GMT 59.582840 29.407196 40,000 260 453 -128
2018-05-17 08:05:32 GMT 59.585049 29.431520 40,000 260 453 128
2018-05-17 08:05:28 GMT 59.586491 29.447243 40,000 260 453 -64
2018-05-17 08:05:21 GMT 59.589100 29.476034 40,000 260 453 0
2018-05-17 08:05:18 GMT 59.590576 29.492432 40,000 260 452 0
2018-05-17 08:05:10 GMT 59.593384 29.523767 40,000 260 452 -128
2018-05-17 08:05:07 GMT 59.594173 29.532480 40,000 260 452 -128
2018-05-17 08:05:04 GMT 59.595291 29.545078 40,000 260 452 -64
2018-05-17 08:04:58 GMT 59.597664 29.571407 40,025 260 452 0
2018-05-17 08:04:55 GMT 59.598782 29.583815 40,025 260 452 0
2018-05-17 08:04:48 GMT 59.601379 29.613098 40,025 260 453 64
2018-05-17 08:04:43 GMT 59.603073 29.631958 40,025 260 453 64
2018-05-17 08:04:37 GMT 59.605316 29.657135 40,000 260 454 64
2018-05-17 08:04:27 GMT 59.608658 29.694946 40,000 261 455 -64
2018-05-17 08:04:20 GMT 59.611118 29.722565 40,000 261 455 -64
2018-05-17 08:04:16 GMT 59.612686 29.739990 40,000 261 455 -64
2018-05-17 08:04:06 GMT 59.616238 29.780432 40,000 261 455 0
2018-05-17 08:03:56 GMT 59.620056 29.823997 40,000 261 454 -64
2018-05-17 08:03:48 GMT 59.622940 29.857269 40,000 261 453 0
2018-05-17 08:03:45 GMT 59.623718 29.866150 40,000 261 452 0
2018-05-17 08:03:38 GMT 59.626465 29.897736 40,000 261 451 64
2018-05-17 08:03:35 GMT 59.627224 29.906395 40,000 261 451 64
2018-05-17 08:03:25 GMT 59.630951 29.949280 40,000 261 450 0
2018-05-17 08:03:14 GMT 59.634796 29.993774 40,000 261 449 0
2018-05-17 08:03:07 GMT 59.637234 30.021658 40,000 261 448 0
2018-05-17 08:03:03 GMT 59.638584 30.037474 40,000 261 448 0
2018-05-17 08:02:56 GMT 59.641376 30.070526 40,025 261 449 0
2018-05-17 08:02:52 GMT 59.642395 30.081940 40,000 261 449 64
2018-05-17 08:02:47 GMT 59.644318 30.104828 40,000 261 450 -64
2018-05-17 08:02:44 GMT 59.645054 30.113148 40,000 261 450 0
2018-05-17 08:02:41 GMT 59.646286 30.127533 40,000 261 450 0
2018-05-17 08:02:34 GMT 59.648407 30.152735 40,000 261 451 -64
2018-05-17 08:02:31 GMT 59.649475 30.165333 40,000 261 451 0
2018-05-17 08:02:24 GMT 59.651917 30.194092 40,000 261 452 0
2018-05-17 08:02:21 GMT 59.653015 30.207289 40,025 261 452 0
2018-05-17 08:02:13 GMT 59.655716 30.238953 40,000 261 452 -64
2018-05-17 08:02:10 GMT 59.656815 30.251862 40,025 261 453 64
2018-05-17 08:02:03 GMT 59.659149 30.279602 40,025 261 453 128
2018-05-17 08:02:00 GMT 59.660110 30.291504 40,000 261 454 0
2018-05-17 08:01:53 GMT 59.662582 30.320526 40,000 261 454 64
2018-05-17 08:01:47 GMT 59.664551 30.344238 40,000 261 455 -64
2018-05-17 08:01:43 GMT 59.665924 30.360626 40,000 261 456 64
2018-05-17 08:01:38 GMT 59.667679 30.381933 40,000 261 456 0
2018-05-17 08:01:33 GMT 59.669495 30.403748 40,000 261 457 0
2018-05-17 08:01:28 GMT 59.671124 30.423037 40,000 261 457 0
2018-05-17 08:01:22 GMT 59.673431 30.450531 40,000 261 457 0
2018-05-17 08:01:18 GMT 59.674713 30.466278 40,000 261 457 0
2018-05-17 08:01:12 GMT 59.676758 30.491133 40,000 261 457 0
2018-05-17 08:01:07 GMT 59.678154 30.507896 40,000 261 457 0
2018-05-17 08:01:02 GMT 59.680161 30.532288 40,000 261 455 0
2018-05-17 08:00:57 GMT 59.681831 30.552505 40,000 261 455 -64
2018-05-17 08:00:52 GMT 59.683506 30.572773 40,000 261 455 -64
2018-05-17 08:00:46 GMT 59.685242 30.594360 40,000 261 455 -64
2018-05-17 08:00:41 GMT 59.687092 30.616718 40,000 261 454 0
2018-05-17 08:00:37 GMT 59.688629 30.635376 40,000 261 454 0
2018-05-17 08:00:31 GMT 59.690506 30.658722 40,000 261 454 -64
2018-05-17 08:00:26 GMT 59.692062 30.677765 40,000 261 454 0
2018-05-17 08:00:23 GMT 59.693115 30.690491 40,000 261 454 0
2018-05-17 08:00:20 GMT 59.694122 30.703125 40,000 261 454 0
2018-05-17 08:00:14 GMT 59.696182 30.728394 40,000 261 454 0
2018-05-17 08:00:11 GMT 59.697517 30.745146 40,000 261 454 0
2018-05-17 08:00:05 GMT 59.699100 30.764750 40,000 262 454 0
2018-05-17 08:00:00 GMT 59.700851 30.786346 40,000 262 454 0
2018-05-17 07:59:54 GMT 59.702732 30.809643 40,000 262 454 64
2018-05-17 07:59:51 GMT 59.703690 30.822144 40,000 262 454 0
2018-05-17 07:59:48 GMT 59.704689 30.834644 40,000 262 454 0
2018-05-17 07:59:42 GMT 59.706738 30.860216 40,000 262 455 0
2018-05-17 07:59:39 GMT 59.707573 30.870634 40,000 262 455 0
2018-05-17 07:59:32 GMT 59.710087 30.902172 40,000 262 455 0
2018-05-17 07:59:28 GMT 59.711300 30.917233 40,000 262 455 0
2018-05-17 07:59:22 GMT 59.713303 30.942627 40,000 262 455 0
2018-05-17 07:59:19 GMT 59.713989 30.951508 40,000 262 455 0
2018-05-17 07:59:12 GMT 59.716328 30.981161 40,000 262 455 0
2018-05-17 07:59:09 GMT 59.717213 30.992620 40,000 262 455 0
2018-05-17 07:59:01 GMT 59.720005 31.027664 40,000 262 454 0
2018-05-17 07:58:58 GMT 59.720795 31.038176 40,000 262 454 0
2018-05-17 07:58:51 GMT 59.723190 31.068970 40,000 262 454 0
2018-05-17 07:58:41 GMT 59.726566 31.111956 40,000 262 454 -64
2018-05-17 07:58:30 GMT 59.729778 31.153534 40,000 262 454 0
2018-05-17 07:58:19 GMT 59.733227 31.198425 40,000 262 454 64
2018-05-17 07:58:09 GMT 59.736420 31.239807 40,000 262 454 -64
2018-05-17 07:57:59 GMT 59.739414 31.278929 40,000 262 454 0
2018-05-17 07:57:49 GMT 59.742535 31.320412 40,000 262 454 0
2018-05-17 07:57:39 GMT 59.745804 31.363129 40,000 262 453 -64
2018-05-17 07:57:29 GMT 59.749100 31.406982 40,000 262 453 0
2018-05-17 07:57:17 GMT 59.752499 31.452532 40,000 262 453 -128
2018-05-17 07:57:08 GMT 59.755337 31.490700 40,025 262 454 64
2018-05-17 07:57:04 GMT 59.756882 31.511261 40,025 262 454 64
2018-05-17 07:56:57 GMT 59.758690 31.535686 40,000 262 454 0
2018-05-17 07:56:47 GMT 59.761780 31.577179 40,000 262 454 0
2018-05-17 07:56:38 GMT 59.764927 31.619598 40,000 262 454 0
2018-05-17 07:56:35 GMT 59.765347 31.625662 40,025 262 454 0
2018-05-17 07:56:26 GMT 59.768093 31.662786 40,000 262 453 64
2018-05-17 07:56:18 GMT 59.770561 31.696789 40,000 262 452 128
2018-05-17 07:56:15 GMT 59.771351 31.707300 40,000 262 452 0
2018-05-17 07:56:09 GMT 59.773361 31.734833 40,000 262 451 0
2018-05-17 07:56:05 GMT 59.774284 31.747835 40,000 262 451 -64
2018-05-17 07:55:56 GMT 59.776890 31.783258 40,025 262 450 0
2018-05-17 07:55:53 GMT 59.777962 31.797844 40,000 262 450 -64
2018-05-17 07:55:47 GMT 59.779823 31.823700 40,000 262 449 0
2018-05-17 07:55:44 GMT 59.780594 31.834351 40,000 262 449 -64
2018-05-17 07:55:37 GMT 59.782745 31.864105 40,000 262 448 0
2018-05-17 07:55:33 GMT 59.783779 31.879009 40,000 262 447 0
2018-05-17 07:55:25 GMT 59.786453 31.915741 40,000 262 446 0
2018-05-17 07:55:22 GMT 59.786900 31.922197 40,000 262 446 0
2018-05-17 07:55:16 GMT 59.788994 31.951273 40,000 262 446 64
2018-05-17 07:55:13 GMT 59.789566 31.959412 40,000 262 446 0
2018-05-17 07:55:06 GMT 59.791836 31.990955 40,000 262 445 0
2018-05-17 07:55:03 GMT 59.792633 32.001892 40,000 262 445 0
2018-05-17 07:54:54 GMT 59.795094 32.036701 40,000 262 445 0
2018-05-17 07:54:51 GMT 59.795929 32.048676 40,000 262 444 -64
2018-05-17 07:54:46 GMT 59.797653 32.072693 40,000 262 444 0
2018-05-17 07:54:42 GMT 59.798676 32.086990 40,000 262 444 0
2018-05-17 07:54:35 GMT 59.800552 32.113495 40,000 263 443 0
2018-05-17 07:54:30 GMT 59.801788 32.130981 40,000 263 443 0
2018-05-17 07:54:25 GMT 59.803333 32.153194 40,000 263 443 64
2018-05-17 07:54:21 GMT 59.804672 32.172363 40,000 263 443 64
2018-05-17 07:54:13 GMT 59.806824 32.203957 40,000 263 443 0
2018-05-17 07:54:09 GMT 59.807556 32.214569 40,000 263 443 -64
2018-05-17 07:54:05 GMT 59.809067 32.236359 40,000 263 442 -128
2018-05-17 07:53:55 GMT 59.811756 32.276222 40,000 263 442 64
2018-05-17 07:53:48 GMT 59.813248 32.299141 40,000 263 442 64
2018-05-17 07:53:43 GMT 59.814552 32.319031 40,000 263 442 0
2018-05-17 07:53:37 GMT 59.816025 32.342926 40,000 264 443 0
2018-05-17 07:53:34 GMT 59.817123 32.361786 40,000 264 442 128
2018-05-17 07:53:27 GMT 59.818554 32.386845 40,000 264 442 0
2018-05-17 07:53:22 GMT 59.819626 32.405785 40,025 264 442 128
2018-05-17 07:53:13 GMT 59.821629 32.440922 40,000 264 442 0
2018-05-17 07:53:02 GMT 59.824001 32.482971 40,000 264 442 0
2018-05-17 07:52:53 GMT 59.826187 32.522846 40,000 264 442 64
2018-05-17 07:52:43 GMT 59.828568 32.565308 40,025 264 442 128
2018-05-17 07:52:35 GMT 59.830193 32.595299 40,000 264 442 128
2018-05-17 07:52:32 GMT 59.830902 32.607788 40,000 264 442 0
2018-05-17 07:52:24 GMT 59.832661 32.639812 40,000 264 441 -64
2018-05-17 07:52:21 GMT 59.833099 32.647705 40,000 264 441 -64
2018-05-17 07:52:12 GMT 59.835220 32.686695 40,000 264 441 -64
2018-05-17 07:52:01 GMT 59.837631 32.731293 40,000 264 440 128
2018-05-17 07:51:54 GMT 59.839317 32.762554 40,000 264 440 64
2018-05-17 07:51:51 GMT 59.839874 32.772400 40,000 264 440 64
2018-05-17 07:51:43 GMT 59.841503 32.803188 40,000 264 439 0
2018-05-17 07:51:40 GMT 59.842064 32.813606 40,000 264 439 0
2018-05-17 07:51:31 GMT 59.844177 32.853058 40,000 264 438 64
2018-05-17 07:51:21 GMT 59.846329 32.893250 40,000 264 438 0
2018-05-17 07:51:10 GMT 59.848488 32.934643 40,000 264 439 0
2018-05-17 07:51:03 GMT 59.850128 32.966217 40,000 265 440 0
2018-05-17 07:51:00 GMT 59.850723 32.977074 40,000 265 440 0
2018-05-17 07:50:49 GMT 59.852909 33.019127 40,000 265 441 -64
2018-05-17 07:50:41 GMT 59.854542 33.050854 40,000 265 443 -64
2018-05-17 07:50:38 GMT 59.855347 33.066559 40,025 265 443 0
2018-05-17 07:50:31 GMT 59.856586 33.090630 40,000 265 444 0
2018-05-17 07:50:28 GMT 59.857407 33.106934 40,000 265 444 64
2018-05-17 07:50:21 GMT 59.858688 33.131470 40,000 265 445 64
2018-05-17 07:50:18 GMT 59.859520 33.147835 40,000 265 445 -64
2018-05-17 07:50:12 GMT 59.860683 33.171417 40,000 265 446 0
2018-05-17 07:50:07 GMT 59.861664 33.190247 40,000 265 447 -64
2018-05-17 07:50:00 GMT 59.862965 33.216217 40,000 265 447 0
2018-05-17 07:49:57 GMT 59.863770 33.231720 40,000 265 447 128
2018-05-17 07:49:51 GMT 59.865005 33.256256 40,000 265 447 0
2018-05-17 07:49:47 GMT 59.865807 33.272190 40,000 265 447 0
2018-05-17 07:49:41 GMT 59.867020 33.296448 40,000 265 447 0
2018-05-17 07:49:37 GMT 59.867935 33.315491 40,000 265 447 -64
2018-05-17 07:49:31 GMT 59.869125 33.338654 40,000 265 446 -64
2018-05-17 07:49:26 GMT 59.870087 33.358429 40,000 265 446 -192
2018-05-17 07:49:20 GMT 59.871300 33.383286 40,000 265 446 64
2018-05-17 07:49:16 GMT 59.872101 33.399536 40,000 265 445 -64
2018-05-17 07:49:10 GMT 59.873253 33.422874 40,000 265 445 64
2018-05-17 07:49:05 GMT 59.874184 33.441910 40,000 265 445 64
2018-05-17 07:49:00 GMT 59.875210 33.462650 40,000 265 445 64
2018-05-17 07:48:55 GMT 59.876186 33.483582 40,000 265 445 0
2018-05-17 07:48:50 GMT 59.877213 33.504513 40,000 265 444 0
2018-05-17 07:48:45 GMT 59.878143 33.523865 40,000 265 443 -128
2018-05-17 07:48:40 GMT 59.879242 33.546478 40,025 265 443 -64
2018-05-17 07:48:35 GMT 59.880096 33.564465 40,025 265 442 128
2018-05-17 07:48:30 GMT 59.881214 33.588142 40,000 265 442 0
2018-05-17 07:48:25 GMT 59.882099 33.606705 40,000 265 442 -64
2018-05-17 07:48:19 GMT 59.883167 33.628487 40,000 265 441 -128
2018-05-17 07:48:14 GMT 59.884094 33.648834 40,000 265 441 0
2018-05-17 07:48:08 GMT 59.885220 33.672813 40,000 265 440 64
2018-05-17 07:48:04 GMT 59.886063 33.690857 40,000 265 440 0
2018-05-17 07:47:59 GMT 59.887032 33.711170 40,000 265 440 0
2018-05-17 07:47:54 GMT 59.887962 33.731342 40,000 265 440 64
2018-05-17 07:47:48 GMT 59.888943 33.752178 40,000 265 440 -64
2018-05-17 07:47:44 GMT 59.889828 33.772163 40,000 265 440 0
2018-05-17 07:47:38 GMT 59.890850 33.794323 40,000 265 440 0
2018-05-17 07:47:34 GMT 59.891689 33.812412 40,000 265 440 128
2018-05-17 07:47:28 GMT 59.892712 33.834953 40,000 265 440 -64
2018-05-17 07:47:22 GMT 59.893661 33.855560 40,000 265 440 0
2018-05-17 07:47:17 GMT 59.894623 33.877384 40,000 265 440 0
2018-05-17 07:47:12 GMT 59.895630 33.899597 40,000 265 440 0
2018-05-17 07:47:08 GMT 59.896484 33.918015 40,000 265 440 0
2018-05-17 07:47:03 GMT 59.897228 33.935444 40,000 265 440 0
2018-05-17 07:46:57 GMT 59.898331 33.960022 40,000 265 440 0
2018-05-17 07:46:52 GMT 59.899181 33.979103 40,000 265 441 64
2018-05-17 07:46:47 GMT 59.900066 33.999275 40,000 265 441 0
2018-05-17 07:46:42 GMT 59.900906 34.017933 40,000 265 441 -64
2018-05-17 07:46:36 GMT 59.902039 34.043610 40,000 265 441 0
2018-05-17 07:46:32 GMT 59.902771 34.059906 40,000 265 441 64
2018-05-17 07:46:27 GMT 59.903732 34.082062 40,000 265 442 -64
2018-05-17 07:46:22 GMT 59.904602 34.102020 40,000 266 441 -64
2018-05-17 07:46:16 GMT 59.905563 34.124359 40,000 266 441 64
2018-05-17 07:46:12 GMT 59.906433 34.143951 40,000 266 441 0
2018-05-17 07:46:05 GMT 59.907421 34.166534 40,000 266 441 0
2018-05-17 07:46:00 GMT 59.908356 34.188694 40,000 266 441 -64
2018-05-17 07:45:56 GMT 59.909241 34.208584 40,000 266 441 0
2018-05-17 07:45:51 GMT 59.909985 34.226864 40,000 266 442 0
2018-05-17 07:45:46 GMT 59.910965 34.249237 40,000 266 442 0
2018-05-17 07:45:40 GMT 59.911835 34.270203 40,000 266 442 -64
2018-05-17 07:45:35 GMT 59.912704 34.290253 40,025 266 442 64
2018-05-17 07:45:30 GMT 59.913620 34.312500 40,000 266 442 0
2018-05-17 07:45:25 GMT 59.914581 34.334473 40,000 266 443 0
2018-05-17 07:45:21 GMT 59.915268 34.351044 40,000 266 443 64
2018-05-17 07:45:13 GMT 59.916321 34.376404 40,000 266 443 0
2018-05-17 07:45:10 GMT 59.916870 34.390411 40,000 266 443 0
2018-05-17 07:45:03 GMT 59.918152 34.420990 40,000 266 443 -64
2018-05-17 07:45:00 GMT 59.918640 34.433235 40,000 266 443 -64
2018-05-17 07:44:53 GMT 59.919754 34.460449 40,000 266 442 64
2018-05-17 07:44:49 GMT 59.920532 34.479401 40,000 266 442 64
2018-05-17 07:44:42 GMT 59.921539 34.504303 40,000 266 442 0
2018-05-17 07:44:39 GMT 59.922134 34.518761 40,000 266 442 0
2018-05-17 07:44:33 GMT 59.923141 34.543945 40,000 266 442 0
2018-05-17 07:44:28 GMT 59.923920 34.563263 40,000 266 442 64
2018-05-17 07:44:21 GMT 59.924927 34.588440 40,000 266 442 0
2018-05-17 07:44:18 GMT 59.925625 34.605419 40,000 266 442 64
2018-05-17 07:44:12 GMT 59.926437 34.625610 40,000 266 442 0
2018-05-17 07:44:07 GMT 59.927216 34.646027 40,000 266 442 0
2018-05-17 07:44:01 GMT 59.928177 34.669922 40,000 266 442 64
2018-05-17 07:43:58 GMT 59.928791 34.686394 40,000 266 441 0
2018-05-17 07:43:52 GMT 59.929676 34.708557 40,000 266 441 0
2018-05-17 07:43:47 GMT 59.930187 34.722481 40,000 266 441 0
2018-05-17 07:43:42 GMT 59.931290 34.751038 40,000 266 441 0
2018-05-17 07:43:38 GMT 59.931816 34.764153 40,000 266 441 0
2018-05-17 07:43:31 GMT 59.932846 34.792053 40,000 266 441 0
2018-05-17 07:43:27 GMT 59.933533 34.810089 40,000 266 441 64
2018-05-17 07:43:21 GMT 59.934402 34.832336 40,000 266 441 0
2018-05-17 07:43:17 GMT 59.935089 34.850464 40,000 266 441 0
2018-05-17 07:43:10 GMT 59.936005 34.875530 40,000 266 441 64
2018-05-17 07:43:05 GMT 59.936783 34.896057 40,000 266 442 0
2018-05-17 07:43:00 GMT 59.937515 34.915741 40,000 266 442 0
2018-05-17 07:42:57 GMT 59.938103 34.931694 40,000 266 442 0
2018-05-17 07:42:51 GMT 59.939026 34.956665 40,000 266 442 0
2018-05-17 07:42:46 GMT 59.939777 34.976208 40,000 266 442 0
2018-05-17 07:42:39 GMT 59.940708 35.001114 40,000 266 442 0
2018-05-17 07:42:36 GMT 59.941360 35.019772 40,000 266 442 -64
2018-05-17 07:42:29 GMT 59.942150 35.040607 40,000 266 442 0
2018-05-17 07:42:25 GMT 59.942898 35.061539 40,000 266 442 0
2018-05-17 07:42:20 GMT 59.943604 35.080811 40,000 266 443 64
2018-05-17 07:42:15 GMT 59.944244 35.099331 40,000 266 443 0
2018-05-17 07:42:10 GMT 59.945038 35.121586 40,000 266 443 64
2018-05-17 07:42:06 GMT 59.945782 35.141666 40,000 266 444 0
2018-05-17 07:42:00 GMT 59.946621 35.165909 40,000 266 444 0
2018-05-17 07:41:55 GMT 59.947178 35.181538 40,000 267 445 64
2018-05-17 07:41:49 GMT 59.948044 35.206696 40,000 267 446 -64
2018-05-17 07:41:45 GMT 59.948624 35.223209 40,000 267 446 0
2018-05-17 07:41:39 GMT 59.949459 35.246983 40,000 267 446 0
2018-05-17 07:41:34 GMT 59.950195 35.267761 40,000 267 447 0
2018-05-17 07:41:29 GMT 59.950905 35.288750 40,000 267 447 0
2018-05-17 07:41:23 GMT 59.951694 35.311668 40,000 267 448 0
2018-05-17 07:41:18 GMT 59.952393 35.332031 40,000 267 448 0
2018-05-17 07:41:15 GMT 59.952950 35.348797 40,000 267 449 0
2018-05-17 07:41:09 GMT 59.953743 35.373039 40,000 267 449 -64
2018-05-17 07:41:04 GMT 59.954300 35.389614 40,000 267 449 64
2018-05-17 07:40:58 GMT 59.955139 35.415115 40,000 267 448 -128
2018-05-17 07:40:53 GMT 59.955688 35.431950 40,025 267 448 64
2018-05-17 07:40:48 GMT 59.956467 35.455723 40,000 267 448 -64
2018-05-17 07:40:43 GMT 59.957188 35.477207 40,000 267 448 0
2018-05-17 07:40:37 GMT 59.957932 35.500900 40,000 267 448 64
2018-05-17 07:40:33 GMT 59.958481 35.517853 40,000 267 448 0
2018-05-17 07:40:28 GMT 59.959236 35.541752 40,000 267 447 0
2018-05-17 07:40:23 GMT 59.959888 35.562157 40,000 267 447 0
2018-05-17 07:40:16 GMT 59.960678 35.587463 40,000 267 447 -64
2018-05-17 07:40:13 GMT 59.961098 35.600510 40,000 267 447 0
2018-05-17 07:40:07 GMT 59.961868 35.625725 40,000 267 447 0
2018-05-17 07:40:03 GMT 59.962418 35.643436 40,000 267 447 0
2018-05-17 07:39:56 GMT 59.963242 35.668533 40,000 267 446 0
2018-05-17 07:39:53 GMT 59.963753 35.684673 40,000 267 446 0
2018-05-17 07:39:46 GMT 59.964478 35.708595 40,000 267 445 -64
2018-05-17 07:39:35 GMT 59.965939 35.754513 40,000 267 445 0
2018-05-17 07:39:30 GMT 59.966732 35.778252 40,000 267 446 0
2018-05-17 07:39:25 GMT 59.967335 35.795029 40,000 267 446 0
2018-05-17 07:39:16 GMT 59.968918 35.838821 40,000 266 446 64
2018-05-17 07:39:05 GMT 59.970596 35.879482 40,000 266 447 0
2018-05-17 07:38:55 GMT 59.972305 35.920650 40,000 266 447 -64
2018-05-17 07:38:44 GMT 59.974045 35.962231 40,000 266 447 -64
2018-05-17 07:38:34 GMT 59.975739 36.003807 40,000 266 447 64
2018-05-17 07:38:25 GMT 59.977524 36.046429 40,000 266 448 0
2018-05-17 07:38:14 GMT 59.979263 36.088573 40,000 266 448 0
2018-05-17 07:38:04 GMT 59.980885 36.129227 40,000 266 447 0
2018-05-17 07:37:52 GMT 59.982742 36.176369 40,000 266 447 64
2018-05-17 07:37:43 GMT 59.984116 36.213020 40,000 266 447 -64
2018-05-17 07:37:34 GMT 59.985626 36.254124 40,025 267 446 0
2018-05-17 07:37:23 GMT 59.987045 36.296745 40,000 267 444 64
2018-05-17 07:37:13 GMT 59.988190 36.338795 40,000 268 444 -64
2018-05-17 07:37:02 GMT 59.989288 36.381699 40,000 268 443 64
2018-05-17 07:36:53 GMT 59.990288 36.421246 40,000 268 443 0
2018-05-17 07:36:42 GMT 59.991394 36.463245 40,000 268 443 0
2018-05-17 07:36:32 GMT 59.992447 36.505672 40,000 268 443 0
2018-05-17 07:36:22 GMT 59.993450 36.546608 40,000 268 443 0
2018-05-17 07:36:09 GMT 59.994736 36.600384 40,000 268 442 0
2018-05-17 07:36:02 GMT 59.995422 36.629555 40,000 268 442 -64
2018-05-17 07:35:55 GMT 59.996017 36.655125 40,000 268 442 0
2018-05-17 07:35:51 GMT 59.996429 36.672363 40,000 268 441 0
2018-05-17 07:35:40 GMT 59.997437 36.714130 40,000 268 441 0
2018-05-17 07:35:30 GMT 59.998341 36.754173 40,000 268 440 0
2018-05-17 07:35:20 GMT 59.999359 36.799370 40,000 268 440 0
2018-05-17 07:35:16 GMT 59.999634 36.811111 40,000 268 440 -64
2018-05-17 07:35:07 GMT 60.000526 36.851772 40,000 268 439 0
2018-05-17 07:35:00 GMT 60.001099 36.878075 40,000 268 439 64
2018-05-17 07:34:55 GMT 60.001553 36.898762 40,000 268 439 -64
2018-05-17 07:34:50 GMT 60.002018 36.919556 40,000 268 439 0
2018-05-17 07:34:46 GMT 60.002392 36.936428 40,000 268 439 0
2018-05-17 07:34:39 GMT 60.002949 36.963207 40,000 268 438 -64
2018-05-17 07:34:35 GMT 60.003296 36.979412 40,000 268 438 0
2018-05-17 07:34:29 GMT 60.003845 37.004604 40,000 268 438 -64
2018-05-17 07:34:25 GMT 60.004166 37.020042 40,000 268 438 0
2018-05-17 07:34:18 GMT 60.004669 37.045212 40,000 268 439 0
2018-05-17 07:34:15 GMT 60.005081 37.064274 40,000 268 439 -64
2018-05-17 07:34:09 GMT 60.005493 37.085110 40,000 268 439 64
2018-05-17 07:34:03 GMT 60.005997 37.108311 40,000 268 440 0
2018-05-17 07:33:58 GMT 60.006409 37.128391 40,000 268 440 0
2018-05-17 07:33:53 GMT 60.006821 37.148945 40,000 268 441 64
2018-05-17 07:33:49 GMT 60.007233 37.170376 40,000 268 441 0
2018-05-17 07:33:43 GMT 60.007553 37.187206 40,000 268 441 0
2018-05-17 07:33:38 GMT 60.007977 37.208340 40,000 268 441 0
2018-05-17 07:33:33 GMT 60.008347 37.229233 40,000 268 442 0
2018-05-17 07:33:27 GMT 60.008816 37.253757 40,000 268 442 0
2018-05-17 07:33:22 GMT 60.009186 37.273670 40,000 268 442 0
2018-05-17 07:33:17 GMT 60.009567 37.294323 40,000 268 442 0
2018-05-17 07:33:13 GMT 60.009979 37.314495 40,000 268 442 0
2018-05-17 07:33:07 GMT 60.010349 37.334484 40,000 268 442 -64
2018-05-17 07:33:02 GMT 60.010723 37.356949 40,000 268 441 0
2018-05-17 07:32:58 GMT 60.011078 37.375961 40,000 268 441 0
2018-05-17 07:32:51 GMT 60.011513 37.398048 40,000 268 441 64
2018-05-17 07:32:46 GMT 60.011856 37.418865 40,000 268 441 0
2018-05-17 07:32:42 GMT 60.012268 37.439796 40,000 268 441 64
2018-05-17 07:32:31 GMT 60.013004 37.481918 40,000 268 441 -64
2018-05-17 07:32:20 GMT 60.013794 37.525372 40,000 269 441 -64
2018-05-17 07:32:11 GMT 60.014465 37.566139 40,000 269 441 -64
2018-05-17 07:32:00 GMT 60.015198 37.608284 40,000 269 440 128
2018-05-17 07:31:49 GMT 60.015938 37.649559 40,000 269 440 -64
2018-05-17 07:31:40 GMT 60.016479 37.691536 40,000 270 440 0
2018-05-17 07:31:26 GMT 60.016525 37.750160 40,000 271 440 64
2018-05-17 07:31:19 GMT 60.016251 37.774689 40,000 272 440 0
2018-05-17 07:31:15 GMT 60.015984 37.791103 40,000 273 440 -128
2018-05-17 07:31:09 GMT 60.015381 37.817215 40,000 273 439 64
2018-05-17 07:31:04 GMT 60.014912 37.835049 40,000 274 439 64
2018-05-17 07:30:58 GMT 60.014099 37.859264 40,000 274 439 0
2018-05-17 07:30:47 GMT 60.012772 37.900936 40,000 274 439 0
2018-05-17 07:30:38 GMT 60.011444 37.941093 40,000 274 439 0
2018-05-17 07:30:25 GMT 60.009747 37.990917 40,000 274 438 0
2018-05-17 07:30:17 GMT 60.008652 38.024059 40,000 274 439 0
2018-05-17 07:30:06 GMT 60.007187 38.066017 40,000 274 439 0
2018-05-17 07:29:56 GMT 60.005768 38.108257 40,000 274 439 0
2018-05-17 07:29:45 GMT 60.004158 38.153950 40,000 275 439 0
2018-05-17 07:29:35 GMT 60.002838 38.190845 40,000 275 438 0
2018-05-17 07:29:25 GMT 60.001366 38.232910 40,000 275 438 0
2018-05-17 07:29:15 GMT 59.999863 38.274189 40,000 275 438 0
2018-05-17 07:29:04 GMT 59.998352 38.315861 40,000 275 438 64
2018-05-17 07:28:55 GMT 59.996841 38.356964 40,025 275 438 0
2018-05-17 07:28:43 GMT 59.995220 38.400845 40,000 275 439 0
2018-05-17 07:28:31 GMT 59.993359 38.451756 40,000 275 439 0
2018-05-17 07:28:21 GMT 59.991852 38.491737 40,000 275 439 0
2018-05-17 07:28:13 GMT 59.990616 38.524223 40,000 275 438 0
2018-05-17 07:28:00 GMT 59.988785 38.572998 40,000 275 438 0
2018-05-17 07:27:52 GMT 59.987492 38.607624 40,000 275 438 64
2018-05-17 07:27:44 GMT 59.986359 38.636929 40,000 275 437 64
2018-05-17 07:27:41 GMT 59.985725 38.653435 40,000 275 437 64
2018-05-17 07:27:32 GMT 59.984344 38.688545 40,000 275 437 -64
2018-05-17 07:27:29 GMT 59.983864 38.700520 40,000 275 437 -64
2018-05-17 07:27:22 GMT 59.982697 38.730045 40,000 275 436 0
2018-05-17 07:27:19 GMT 59.982376 38.738739 40,000 275 436 0
2018-05-17 07:27:10 GMT 59.980911 38.775963 40,000 275 435 0
2018-05-17 07:27:00 GMT 59.979172 38.819717 40,000 275 435 0
2018-05-17 07:26:49 GMT 59.977577 38.860016 40,000 275 435 64
2018-05-17 07:26:39 GMT 59.975967 38.899273 40,000 275 435 0
2018-05-17 07:26:29 GMT 59.974319 38.939430 40,000 275 436 0
2018-05-17 07:26:18 GMT 59.972504 38.982533 40,000 275 436 0
2018-05-17 07:26:08 GMT 59.970703 39.026279 40,000 275 436 0
2018-05-17 07:25:59 GMT 59.969151 39.063263 40,000 275 435 0
2018-05-17 07:25:48 GMT 59.967499 39.102425 40,000 275 435 64
2018-05-17 07:25:37 GMT 59.965668 39.145897 40,000 275 435 -64
2018-05-17 07:25:27 GMT 59.963974 39.185013 40,000 275 435 -128
2018-05-17 07:25:18 GMT 59.962189 39.226021 40,025 276 434 0
2018-05-17 07:25:08 GMT 59.960495 39.265232 40,000 276 434 0
2018-05-17 07:24:57 GMT 59.958675 39.306335 40,000 276 435 64
2018-05-17 07:24:46 GMT 59.956833 39.348198 40,000 276 435 0
2018-05-17 07:24:35 GMT 59.954819 39.393944 40,000 276 436 64
2018-05-17 07:24:25 GMT 59.953033 39.434326 40,000 275 436 0
2018-05-17 07:24:16 GMT 59.951340 39.472687 40,000 276 435 -64
2018-05-17 07:24:05 GMT 59.949505 39.514698 40,000 276 435 64
2018-05-17 07:23:54 GMT 59.947643 39.556652 40,000 276 435 0
2018-05-17 07:23:44 GMT 59.945690 39.600693 40,000 276 434 -64
2018-05-17 07:23:34 GMT 59.944061 39.636780 40,000 276 434 -64
2018-05-17 07:23:24 GMT 59.942200 39.678452 40,025 276 434 0
2018-05-17 07:23:13 GMT 59.940334 39.718796 40,000 276 433 0
2018-05-17 07:23:02 GMT 59.938339 39.762909 40,000 276 433 64
2018-05-17 07:22:52 GMT 59.936520 39.802048 40,000 276 434 0
2018-05-17 07:22:42 GMT 59.934586 39.843384 40,000 276 434 0
2018-05-17 07:22:32 GMT 59.932747 39.883495 40,000 276 434 0
2018-05-17 07:22:22 GMT 59.930832 39.924408 40,000 276 434 0
2018-05-17 07:22:11 GMT 59.928864 39.966248 40,000 276 433 -64
2018-05-17 07:22:01 GMT 59.926895 40.007355 40,000 276 433 0
2018-05-17 07:21:51 GMT 59.925068 40.046303 40,000 276 432 0
2018-05-17 07:21:41 GMT 59.923096 40.087097 40,000 276 432 0
2018-05-17 07:21:31 GMT 59.921082 40.128662 40,000 276 432 -64
2018-05-17 07:21:19 GMT 59.919014 40.171413 40,000 276 432 0
2018-05-17 07:21:10 GMT 59.917191 40.209869 40,000 276 433 0
2018-05-17 07:21:00 GMT 59.915195 40.250496 40,000 276 433 0
2018-05-17 07:20:49 GMT 59.913162 40.291992 40,000 276 433 -64
2018-05-17 07:20:39 GMT 59.911194 40.332092 40,000 276 434 0
2018-05-17 07:20:28 GMT 59.909054 40.374092 40,000 276 434 64
2018-05-17 07:20:18 GMT 59.907074 40.413391 40,000 276 435 0
2018-05-17 07:20:08 GMT 59.904907 40.455639 40,000 276 436 64
2018-05-17 07:19:00 GMT 59.889732 40.724331 40,000 277 436 0
2018-05-17 07:18:56 GMT 59.888763 40.740234 40,000 277 436 0
2018-05-17 07:18:46 GMT 59.886292 40.782440 40,000 277 436 0
2018-05-17 07:18:35 GMT 59.883865 40.823822 40,000 277 435 0
2018-05-17 07:18:25 GMT 59.881531 40.862915 40,000 277 436 0
2018-05-17 07:18:15 GMT 59.879013 40.905304 40,000 277 438 0
2018-05-17 07:18:04 GMT 59.876560 40.946045 40,000 277 438 64
2018-05-17 07:17:55 GMT 59.874092 40.986298 40,000 277 439 0
2018-05-17 07:17:44 GMT 59.871578 41.027683 40,000 277 440 64
2018-05-17 07:17:34 GMT 59.869064 41.069359 40,000 277 440 64
2018-05-17 07:17:23 GMT 59.866425 41.112396 40,000 277 440 0
2018-05-17 07:17:13 GMT 59.863907 41.152588 40,000 278 439 0
2018-05-17 07:17:02 GMT 59.861382 41.193615 40,000 278 439 0
2018-05-17 07:16:52 GMT 59.858822 41.234531 40,000 278 438 64
2018-05-17 07:16:43 GMT 59.856262 41.275635 40,000 278 438 -64
2018-05-17 07:16:32 GMT 59.853790 41.315277 40,000 278 438 0
2018-05-17 07:16:21 GMT 59.851135 41.357483 40,000 278 437 128
2018-05-17 07:16:12 GMT 59.848442 41.399609 40,000 278 437 -64
2018-05-17 07:16:01 GMT 59.845917 41.439240 40,000 278 437 0
2018-05-17 07:15:50 GMT 59.843079 41.483276 40,000 278 437 0
2018-05-17 07:15:41 GMT 59.840622 41.521217 40,000 278 437 64
2018-05-17 07:15:30 GMT 59.837952 41.562469 40,000 278 438 0
2018-05-17 07:15:20 GMT 59.835297 41.602753 40,000 278 438 0
2018-05-17 07:15:10 GMT 59.832520 41.645096 40,000 278 438 0
2018-05-17 07:14:59 GMT 59.829823 41.685066 40,000 278 438 0
2018-05-17 07:13:48 GMT 59.810349 41.971161 40,000 278 436 0
2018-05-17 07:13:44 GMT 59.809383 41.985485 40,000 278 435 -128
2018-05-17 07:13:37 GMT 59.807522 42.011909 40,000 278 435 -128
2018-05-17 07:13:30 GMT 59.805588 42.039642 40,000 278 435 -128
2018-05-17 07:13:27 GMT 59.804764 42.051453 40,000 278 434 64
2018-05-17 07:13:22 GMT 59.803425 42.070438 40,000 278 434 64
2018-05-17 07:13:17 GMT 59.801926 42.092468 40,000 278 433 64
2018-05-17 07:13:14 GMT 59.801235 42.102074 40,000 278 433 64
2018-05-17 07:13:05 GMT 59.798676 42.138336 40,000 278 432 0
2018-05-17 07:12:56 GMT 59.795883 42.177746 40,000 278 432 -64
2018-05-17 07:12:44 GMT 59.792908 42.220001 40,025 278 431 128
2018-05-17 07:12:35 GMT 59.790203 42.258152 40,000 279 432 128
2018-05-17 07:12:23 GMT 59.787132 42.300869 40,000 279 432 0
2018-05-17 07:12:13 GMT 59.784340 42.339603 40,000 279 432 0
2018-05-17 07:12:03 GMT 59.781464 42.379028 40,000 279 433 0
2018-05-17 07:11:53 GMT 59.778488 42.420319 40,000 279 434 -64
2018-05-17 07:11:42 GMT 59.775650 42.459320 40,000 279 434 -64
2018-05-17 07:11:32 GMT 59.772701 42.499378 40,000 279 434 0
2018-05-17 07:11:22 GMT 59.769814 42.538685 40,000 279 434 64
2018-05-17 07:11:11 GMT 59.766697 42.581116 40,000 279 434 -128
2018-05-17 07:11:01 GMT 59.763702 42.621552 40,025 279 434 64
2018-05-17 07:10:51 GMT 59.760773 42.660461 40,000 279 433 128
2018-05-17 07:10:40 GMT 59.757568 42.703491 40,000 279 433 64
2018-05-17 07:10:30 GMT 59.754639 42.742401 40,000 279 434 0
2018-05-17 07:10:20 GMT 59.751480 42.784058 40,000 279 434 64
2018-05-17 07:10:10 GMT 59.748539 42.823193 40,000 279 434 64
2018-05-17 07:10:00 GMT 59.745438 42.863708 40,000 279 434 0
2018-05-17 07:09:49 GMT 59.742325 42.904541 40,000 279 434 64
2018-05-17 07:09:38 GMT 59.739166 42.946289 40,000 279 436 0
2018-05-17 07:09:28 GMT 59.735832 42.989124 40,000 279 436 64
2018-05-17 07:09:18 GMT 59.732944 43.026627 40,025 279 436 -128
2018-05-17 07:09:08 GMT 59.729828 43.066772 40,025 279 436 0
2018-05-17 07:08:58 GMT 59.726624 43.107788 40,000 279 437 256
2018-05-17 07:08:47 GMT 59.723328 43.149902 40,000 279 438 64
2018-05-17 07:08:37 GMT 59.720169 43.189911 40,000 279 439 -64
2018-05-17 07:08:27 GMT 59.716873 43.231110 40,000 279 439 0
2018-05-17 07:08:16 GMT 59.713669 43.271667 40,000 279 438 64
2018-05-17 07:08:06 GMT 59.710415 43.312557 40,000 280 438 -64
2018-05-17 07:07:56 GMT 59.707016 43.354511 40,000 280 437 0
2018-05-17 07:07:47 GMT 59.704193 43.389496 40,000 280 437 0
2018-05-17 07:07:44 GMT 59.703571 43.397415 40,000 280 437 0
2018-05-17 07:07:35 GMT 59.700546 43.435017 40,000 280 437 -64
2018-05-17 07:07:24 GMT 59.697239 43.475552 40,000 280 437 -64
2018-05-17 07:07:14 GMT 59.693840 43.517414 40,000 280 437 -64
2018-05-17 07:07:04 GMT 59.690582 43.557285 40,000 280 437 -64
2018-05-17 07:06:54 GMT 59.687370 43.596592 40,000 280 437 0
2018-05-17 07:06:45 GMT 59.684204 43.634853 40,000 280 437 0
2018-05-17 07:06:33 GMT 59.680801 43.675690 40,000 280 437 0
2018-05-17 07:06:23 GMT 59.677361 43.717064 40,000 280 437 64
2018-05-17 07:06:14 GMT 59.673965 43.758072 40,000 280 437 64
2018-05-17 07:06:02 GMT 59.670456 43.799652 40,000 280 437 -64
2018-05-17 07:05:57 GMT 59.668701 43.820580 40,000 280 437 -64
2018-05-17 07:05:52 GMT 59.666977 43.840576 40,000 280 436 -64
2018-05-17 07:05:41 GMT 59.663582 43.881004 40,000 280 435 64
2018-05-17 07:05:31 GMT 59.660110 43.922150 40,000 280 435 0
2018-05-17 07:05:21 GMT 59.656738 43.961601 40,000 280 435 0
2018-05-17 07:05:11 GMT 59.653107 44.004364 40,000 280 435 64
2018-05-17 07:05:00 GMT 59.649719 44.044006 40,000 280 435 64
2018-05-17 07:04:50 GMT 59.646217 44.085106 40,000 280 435 -64
2018-05-17 07:04:39 GMT 59.642818 44.124695 40,000 280 435 64
2018-05-17 07:04:31 GMT 59.639786 44.159729 40,000 280 435 0
2018-05-17 07:04:28 GMT 59.639282 44.165405 40,000 280 435 0
2018-05-17 07:04:19 GMT 59.635712 44.206512 40,000 280 435 0
2018-05-17 07:04:08 GMT 59.632298 44.245731 40,000 280 434 -64
2018-05-17 07:03:57 GMT 59.628708 44.287079 40,000 280 433 0
2018-05-17 07:03:47 GMT 59.625275 44.326447 40,000 280 433 0
2018-05-17 07:03:37 GMT 59.621731 44.366676 40,000 280 432 0
2018-05-17 07:03:27 GMT 59.618179 44.406921 40,000 280 432 64
2018-05-17 07:03:14 GMT 59.614052 44.453526 40,000 280 433 192
2018-05-17 07:03:05 GMT 59.610626 44.491882 40,000 280 433 64
2018-05-17 07:02:58 GMT 59.608139 44.520012 40,000 280 433 0
2018-05-17 07:02:55 GMT 59.607208 44.530239 40,000 280 433 64
2018-05-17 07:02:47 GMT 59.604462 44.561020 40,000 281 433 0
2018-05-17 07:02:37 GMT 59.600971 44.599758 40,000 281 433 64
2018-05-17 07:02:27 GMT 59.597431 44.639343 40,000 281 432 64
2018-05-17 07:02:16 GMT 59.593597 44.681488 40,000 281 432 64
2018-05-17 07:02:07 GMT 59.590073 44.720032 40,000 281 431 -128
2018-05-17 07:01:55 GMT 59.586319 44.761414 40,000 281 430 64
2018-05-17 07:01:46 GMT 59.583252 44.795197 40,000 281 429 0
2018-05-17 07:01:43 GMT 59.582165 44.806980 40,000 281 429 -128
2018-05-17 07:01:33 GMT 59.578438 44.847328 40,000 281 429 -192
2018-05-17 07:01:22 GMT 59.574738 44.887665 40,025 281 429 0
2018-05-17 07:01:12 GMT 59.571129 44.926601 40,025 281 430 64
2018-05-17 07:01:04 GMT 59.568245 44.957664 40,000 281 432 64
2018-05-17 07:01:01 GMT 59.567219 44.968555 40,000 281 433 64
2018-05-17 07:00:55 GMT 59.564659 44.996021 40,000 281 434 0
2018-05-17 07:00:52 GMT 59.563522 45.008057 40,000 281 434 -192
2018-05-17 07:00:44 GMT 59.560776 45.037537 40,000 281 435 64
2018-05-17 07:00:40 GMT 59.559677 45.049164 40,000 281 435 -64
2018-05-17 07:00:34 GMT 59.557117 45.076145 40,000 281 435 -64
2018-05-17 07:00:23 GMT 59.552994 45.119751 40,000 281 436 0
2018-05-17 07:00:13 GMT 59.549343 45.158543 40,000 281 436 0
2018-05-17 07:00:02 GMT 59.545574 45.197849 40,000 281 436 0
2018-05-17 06:59:52 GMT 59.541458 45.240509 40,000 281 437 0
2018-05-17 06:59:42 GMT 59.538033 45.276459 40,000 281 437 -64
2018-05-17 06:59:30 GMT 59.533127 45.327393 40,000 281 438 0
2018-05-17 06:59:19 GMT 59.529232 45.367760 40,000 281 439 0
2018-05-17 06:59:12 GMT 59.526215 45.399353 40,000 281 439 0
2018-05-17 06:59:08 GMT 59.525482 45.407318 40,000 281 439 -64
2018-05-17 06:59:01 GMT 59.522507 45.438538 40,000 281 439 -64
2018-05-17 06:58:58 GMT 59.521637 45.448151 40,000 281 439 64
2018-05-17 06:58:48 GMT 59.517883 45.488708 40,000 280 438 64
2018-05-17 06:58:41 GMT 59.515125 45.520527 40,000 280 438 0
2018-05-17 06:58:37 GMT 59.514359 45.529175 40,000 280 438 64
2018-05-17 06:58:27 GMT 59.511078 45.569111 40,000 280 438 -128
2018-05-17 06:58:19 GMT 59.508453 45.601501 40,000 280 437 64
2018-05-17 06:58:10 GMT 59.505306 45.639763 40,000 280 437 64
2018-05-17 06:57:59 GMT 59.501953 45.680393 40,000 280 436 -64
2018-05-17 06:57:48 GMT 59.498611 45.720978 40,000 280 435 0
2018-05-17 06:57:38 GMT 59.495270 45.760986 40,025 280 433 0
2018-05-17 06:57:29 GMT 59.491928 45.800995 40,000 280 432 0
2018-05-17 06:57:20 GMT 59.489548 45.829285 40,000 280 432 64
2018-05-17 06:57:16 GMT 59.487892 45.849453 40,000 280 431 128
2018-05-17 06:57:05 GMT 59.484447 45.890270 40,000 280 431 64
2018-05-17 06:56:58 GMT 59.481812 45.921112 40,000 280 430 -64
2018-05-17 06:56:55 GMT 59.481125 45.929260 40,000 280 430 -64
2018-05-17 06:56:47 GMT 59.478516 45.959930 40,000 280 429 -64
2018-05-17 06:56:44 GMT 59.477783 45.969086 40,000 280 429 -64
2018-05-17 06:56:37 GMT 59.475281 45.998337 40,000 280 428 -64
2018-05-17 06:56:33 GMT 59.474255 46.010365 40,000 280 428 -64
2018-05-17 06:56:24 GMT 59.471008 46.048737 40,025 280 428 0
2018-05-17 06:56:16 GMT 59.468582 46.077301 40,025 280 428 0
2018-05-17 06:56:05 GMT 59.465038 46.118237 40,000 280 430 64
2018-05-17 06:55:55 GMT 59.461761 46.156586 40,000 280 431 64
2018-05-17 06:55:46 GMT 59.458054 46.198975 40,000 280 433 0
2018-05-17 06:55:35 GMT 59.454704 46.237858 40,000 280 434 0
2018-05-17 06:55:24 GMT 59.451260 46.277256 40,000 280 434 64
2018-05-17 06:55:15 GMT 59.447861 46.316086 40,000 280 434 -64
2018-05-17 06:55:10 GMT 59.446609 46.330078 40,000 280 434 0
2018-05-17 06:55:02 GMT 59.443451 46.366150 40,000 280 433 64
2018-05-17 06:54:54 GMT 59.440922 46.394981 40,000 280 432 -192
2018-05-17 06:54:51 GMT 59.439926 46.406158 40,000 280 432 -64
2018-05-17 06:54:43 GMT 59.437153 46.437408 40,000 280 432 -64
2018-05-17 06:54:36 GMT 59.434799 46.463837 40,000 280 432 128
2018-05-17 06:54:31 GMT 59.432739 46.487091 40,000 280 432 -64
2018-05-17 06:54:23 GMT 59.429565 46.522552 40,000 280 432 0
2018-05-17 06:54:19 GMT 59.429123 46.527832 40,000 280 432 -64
2018-05-17 06:54:09 GMT 59.425560 46.567162 40,000 280 432 -64
2018-05-17 06:53:59 GMT 59.422161 46.605331 40,025 281 431 0
2018-05-17 06:53:49 GMT 59.418594 46.644836 40,000 281 430 0
2018-05-17 06:53:39 GMT 59.415134 46.683372 40,000 281 430 0
2018-05-17 06:53:29 GMT 59.411682 46.721283 40,000 281 430 0
2018-05-17 06:53:20 GMT 59.408340 46.758179 40,000 281 430 128
2018-05-17 06:53:09 GMT 59.404541 46.799744 40,000 281 430 -128
2018-05-17 06:52:58 GMT 59.400238 46.846527 40,000 281 430 0
2018-05-17 06:52:47 GMT 59.396698 46.884533 40,000 281 430 64
2018-05-17 06:52:35 GMT 59.392834 46.926682 40,000 281 430 64
2018-05-17 06:52:24 GMT 59.388969 46.968258 40,000 281 430 128
2018-05-17 06:52:16 GMT 59.385681 47.003448 40,000 281 430 -64
2018-05-17 06:52:05 GMT 59.381927 47.043732 40,000 281 429 64
2018-05-17 06:51:55 GMT 59.378357 47.081818 40,000 281 429 -192
2018-05-17 06:51:44 GMT 59.374329 47.124756 40,025 281 428 64
2018-05-17 06:51:34 GMT 59.370770 47.162033 40,025 281 428 128
2018-05-17 06:51:24 GMT 59.367229 47.199917 40,000 281 428 -64
2018-05-17 06:51:13 GMT 59.363319 47.240738 40,000 281 428 -128
2018-05-17 06:51:04 GMT 59.359829 47.277676 40,000 281 428 -64
2018-05-17 06:50:52 GMT 59.355835 47.319305 40,000 281 428 -128
2018-05-17 06:50:42 GMT 59.352055 47.358463 40,000 281 428 -64
2018-05-17 06:50:33 GMT 59.348423 47.396439 40,000 281 428 128
2018-05-17 06:50:21 GMT 59.344376 47.438206 40,000 281 428 64
2018-05-17 06:50:11 GMT 59.340836 47.474480 40,000 281 429 64
2018-05-17 06:50:02 GMT 59.336926 47.515018 40,000 281 429 0
2018-05-17 06:49:51 GMT 59.332993 47.555054 40,000 281 429 128
2018-05-17 06:49:40 GMT 59.329239 47.593689 40,000 281 430 64
2018-05-17 06:49:30 GMT 59.325474 47.631603 40,000 281 430 -64
2018-05-17 06:49:20 GMT 59.321331 47.673656 40,000 281 431 64
2018-05-17 06:49:09 GMT 59.317566 47.712067 40,025 281 431 64
2018-05-17 06:48:59 GMT 59.313835 47.749424 40,000 281 431 64
2018-05-17 06:48:50 GMT 59.309879 47.789200 40,000 282 432 64
2018-05-17 06:48:39 GMT 59.305874 47.828979 40,000 282 432 -64
2018-05-17 06:48:29 GMT 59.302048 47.867249 40,000 282 431 0
2018-05-17 06:48:17 GMT 59.297836 47.909180 40,000 282 430 -64
2018-05-17 06:48:08 GMT 59.294052 47.946514 40,000 282 430 64
2018-05-17 06:47:58 GMT 59.290188 47.984776 40,000 282 430 -64
2018-05-17 06:47:47 GMT 59.286026 48.025635 40,000 282 430 0
2018-05-17 06:47:38 GMT 59.282227 48.063171 40,000 282 430 64
2018-05-17 06:47:27 GMT 59.278244 48.102448 40,000 282 430 -128
2018-05-17 06:47:16 GMT 59.273987 48.144077 40,025 282 429 0
2018-05-17 06:47:07 GMT 59.270451 48.179119 40,000 282 430 -64
2018-05-17 06:46:55 GMT 59.266026 48.222118 40,000 282 430 64
2018-05-17 06:46:45 GMT 59.262039 48.261108 40,000 282 430 0
2018-05-17 06:46:35 GMT 59.257927 48.301014 40,000 282 430 -64
2018-05-17 06:46:26 GMT 59.254341 48.335865 40,000 282 430 0
2018-05-17 06:46:14 GMT 59.250011 48.377350 40,025 282 430 192
2018-05-17 06:46:04 GMT 59.246056 48.415325 40,000 282 430 -64
2018-05-17 06:45:54 GMT 59.241669 48.457489 40,000 282 430 -64
2018-05-17 06:45:43 GMT 59.237457 48.497589 40,000 282 429 -64
2018-05-17 06:45:33 GMT 59.233887 48.531830 40,025 282 429 -64
2018-05-17 06:45:23 GMT 59.229813 48.570190 40,000 282 429 0
2018-05-17 06:45:13 GMT 59.225784 48.607910 40,000 282 430 -128
2018-05-17 06:45:02 GMT 59.220932 48.653412 40,000 282 430 -64
2018-05-17 06:44:53 GMT 59.217178 48.687744 40,000 283 431 -64
2018-05-17 06:44:43 GMT 59.212723 48.728153 40,000 283 431 64
2018-05-17 06:44:31 GMT 59.208160 48.768406 40,000 283 432 -192
2018-05-17 06:44:22 GMT 59.204063 48.803638 40,000 284 432 192
2018-05-17 06:44:11 GMT 59.198990 48.845024 40,025 285 432 256
2018-05-17 06:44:01 GMT 59.193970 48.883118 40,000 285 433 -64
2018-05-17 06:43:50 GMT 59.188423 48.923634 40,000 285 434 64
2018-05-17 06:43:40 GMT 59.183208 48.961708 40,000 285 434 0
2018-05-17 06:43:31 GMT 59.178131 48.998749 40,025 285 434 128
2018-05-17 06:43:20 GMT 59.173050 49.035919 40,000 286 434 0
2018-05-17 06:43:09 GMT 59.167145 49.078674 40,000 286 435 -64
2018-05-17 06:42:59 GMT 59.161938 49.116367 40,000 286 434 64
2018-05-17 06:42:45 GMT 59.154675 49.168743 40,000 286 436 -64
2018-05-17 06:42:38 GMT 59.151134 49.194031 40,000 286 436 0
2018-05-17 06:42:28 GMT 59.145721 49.232758 40,000 286 436 0
2018-05-17 06:42:11 GMT 59.136379 49.299824 40,000 286 437 64
2018-05-17 06:42:05 GMT 59.133728 49.318634 40,000 286 437 64
2018-05-17 06:41:55 GMT 59.128418 49.356361 40,000 286 437 64
2018-05-17 06:41:46 GMT 59.123199 49.393707 40,000 286 436 0
2018-05-17 06:41:32 GMT 59.116241 49.442963 40,000 286 435 64
2018-05-17 06:41:14 GMT 59.108681 49.496521 40,025 286 433 0
2018-05-17 06:40:52 GMT 59.096901 49.579311 40,025 286 433 0
2018-05-17 06:40:15 GMT 59.076550 49.721458 40,200 285 433 0
2018-05-17 06:39:40 GMT 59.055496 49.866852 40,000 286 431 -64
2018-05-17 06:39:32 GMT 59.051792 49.892422 40,000 286 431 -64
2018-05-17 06:38:54 GMT 59.033539 50.018848 40,200 285 433 0
2018-05-17 06:38:15 GMT 59.012138 50.167511 40,200 285 434 -64
2018-05-17 06:37:34 GMT 58.990219 50.317558 40,200 286 431 0
2018-05-17 06:36:56 GMT 58.968651 50.459820 40,175 286 430 -64
2018-05-17 06:36:15 GMT 58.945950 50.611080 40,175 285 428 -64
2018-05-17 06:35:34 GMT 58.925541 50.762890 40,175 284 429 0
2018-05-17 06:35:14 GMT 58.916382 50.833462 40,175 284 430 -64
2018-05-17 06:34:53 GMT 58.905991 50.912819 40,150 284 430 0
2018-05-17 06:34:15 GMT 58.887691 51.052231 40,150 284 429 0
2018-05-17 06:33:35 GMT 58.867538 51.204708 40,175 284 428 -64
2018-05-17 06:33:15 GMT 58.858150 51.274841 40,175 284 429 64
2018-05-17 06:32:50 GMT 58.843891 51.381042 40,000 285 431 64
2018-05-17 06:32:32 GMT 58.834579 51.449707 40,000 285 430 0
2018-05-17 06:32:29 GMT 58.833042 51.461151 40,000 285 430 0
2018-05-17 06:32:20 GMT 58.828079 51.497616 40,000 285 429 -64
2018-05-17 06:32:08 GMT 58.822586 51.538105 40,000 285 428 0
2018-05-17 06:31:59 GMT 58.817589 51.574677 40,000 285 427 0
2018-05-17 06:31:47 GMT 58.812286 51.613327 40,000 285 426 0
2018-05-17 06:31:36 GMT 58.806835 51.653412 40,000 285 426 64
2018-05-17 06:31:26 GMT 58.801620 51.691029 40,000 285 425 64
2018-05-17 06:31:16 GMT 58.796402 51.729214 40,025 285 425 0
2018-05-17 06:31:05 GMT 58.791092 51.767578 40,025 285 425 0
2018-05-17 06:30:55 GMT 58.786011 51.804256 40,025 285 426 64
2018-05-17 06:30:45 GMT 58.780674 51.843018 40,000 285 427 -64
2018-05-17 06:30:35 GMT 58.775299 51.881607 40,025 286 428 128
2018-05-17 06:30:24 GMT 58.770081 51.918728 40,000 286 429 64
2018-05-17 06:30:13 GMT 58.764359 51.959484 40,000 286 431 -64
2018-05-17 06:30:03 GMT 58.759232 51.996254 40,000 286 432 0
2018-05-17 06:29:42 GMT 58.743198 52.110260 40,000 286 429 0
2018-05-17 06:29:22 GMT 58.737797 52.148529 40,000 286 428 0
2018-05-17 06:29:12 GMT 58.732132 52.188782 40,000 286 429 0
2018-05-17 06:29:01 GMT 58.726959 52.225193 40,000 286 427 0
2018-05-17 06:28:51 GMT 58.721367 52.264709 40,000 286 427 0
2018-05-17 06:28:40 GMT 58.716019 52.302277 40,000 286 426 64
2018-05-17 06:28:30 GMT 58.710480 52.341171 40,000 286 425 0
2018-05-17 06:28:26 GMT 58.708981 52.351593 40,000 286 425 0
2018-05-17 06:28:16 GMT 58.703720 52.388306 40,000 286 424 0
2018-05-17 06:28:06 GMT 58.698029 52.428085 40,000 286 424 0
2018-05-17 06:27:56 GMT 58.693314 52.460957 40,000 286 423 0
2018-05-17 06:27:45 GMT 58.687893 52.498627 40,000 286 422 -64
2018-05-17 06:27:37 GMT 58.683331 52.530121 40,000 286 422 64
2018-05-17 06:27:26 GMT 58.677933 52.567657 40,000 286 421 128
2018-05-17 06:27:16 GMT 58.672485 52.605286 39,975 286 421 128
2018-05-17 06:27:05 GMT 58.667084 52.642941 39,950 286 421 0
2018-05-17 06:26:56 GMT 58.661873 52.678894 39,950 286 421 0
2018-05-17 06:26:45 GMT 58.656189 52.715946 39,925 288 420 192
2018-05-17 06:26:35 GMT 58.649826 52.753601 39,900 289 419 128
2018-05-17 06:26:24 GMT 58.639992 52.806152 39,875 291 418 0
2018-05-17 06:26:09 GMT 58.632660 52.842113 39,875 292 417 128
2018-05-17 06:25:59 GMT 58.625187 52.878296 39,850 292 416 128
2018-05-17 06:25:48 GMT 58.617928 52.913269 39,825 292 416 128
2018-05-17 06:25:38 GMT 58.610573 52.948700 39,800 292 416 64
2018-05-17 06:25:27 GMT 58.602844 52.985596 39,800 292 415 320
2018-05-17 06:25:17 GMT 58.594986 53.023209 39,750 292 415 320
2018-05-17 06:25:06 GMT 58.587250 53.060421 39,700 292 415 320
2018-05-17 06:24:55 GMT 58.579800 53.095917 39,625 292 416 256
2018-05-17 06:24:44 GMT 58.572258 53.131714 39,575 292 416 320
2018-05-17 06:24:34 GMT 58.564865 53.167095 39,525 292 417 512
2018-05-17 06:24:23 GMT 58.557129 53.203766 39,425 292 418 448
2018-05-17 06:24:12 GMT 58.549400 53.240387 39,350 293 418 512
2018-05-17 06:24:05 GMT 58.544468 53.263641 39,275 292 419 512
2018-05-17 06:24:02 GMT 58.541885 53.275982 39,250 292 419 448
2018-05-17 06:23:56 GMT 58.537109 53.298615 39,200 292 419 448
2018-05-17 06:23:41 GMT 58.519592 53.381329 39,025 293 423 448
2018-05-17 06:23:20 GMT 58.511765 53.418186 38,925 293 423 448
2018-05-17 06:23:11 GMT 58.504150 53.453979 38,850 293 423 448
2018-05-17 06:23:00 GMT 58.496384 53.490040 38,750 293 424 576
2018-05-17 06:22:49 GMT 58.488930 53.524933 38,675 293 424 512
2018-05-17 06:22:39 GMT 58.480782 53.563110 38,575 293 425 512
2018-05-17 06:22:29 GMT 58.473381 53.597534 38,500 293 428 448
2018-05-17 06:22:18 GMT 58.465328 53.634888 38,400 293 430 448
2018-05-17 06:22:08 GMT 58.457741 53.670319 38,325 293 431 448
2018-05-17 06:21:58 GMT 58.449966 53.706299 38,250 293 431 576
2018-05-17 06:21:47 GMT 58.441772 53.744144 38,150 293 431 512
2018-05-17 06:21:36 GMT 58.433811 53.780823 38,075 293 432 512
2018-05-17 06:21:27 GMT 58.426254 53.815731 38,000 293 433 -64
2018-05-17 06:21:15 GMT 58.417984 53.853790 38,000 293 433 64
2018-05-17 06:21:06 GMT 58.410233 53.889446 38,000 293 433 64
2018-05-17 06:20:55 GMT 58.402267 53.925949 38,000 293 433 0
2018-05-17 06:20:45 GMT 58.394337 53.962189 38,000 293 433 0
2018-05-17 06:20:34 GMT 58.386292 53.998955 38,000 293 433 0
2018-05-17 06:20:23 GMT 58.377869 54.037495 38,000 293 432 64
2018-05-17 06:20:14 GMT 58.369720 54.074619 38,000 293 432 0
2018-05-17 06:20:03 GMT 58.362305 54.108288 38,000 293 432 -64
2018-05-17 06:19:52 GMT 58.354210 54.145111 38,000 293 432 0
2018-05-17 06:19:42 GMT 58.346386 54.180542 38,000 293 432 64
2018-05-17 06:19:32 GMT 58.338318 54.216999 38,000 293 432 -192
2018-05-17 06:19:22 GMT 58.330170 54.253765 38,000 293 432 -64
2018-05-17 06:19:11 GMT 58.321995 54.290497 38,000 293 432 64
2018-05-17 06:19:01 GMT 58.314102 54.325974 38,000 293 432 -64
2018-05-17 06:18:50 GMT 58.305862 54.363010 38,000 293 432 0
2018-05-17 06:18:40 GMT 58.297806 54.399246 38,025 293 431 -128
2018-05-17 06:18:30 GMT 58.289734 54.435425 38,000 294 431 -64
2018-05-17 06:18:19 GMT 58.281540 54.471954 38,000 294 431 64
2018-05-17 06:18:08 GMT 58.273453 54.507957 38,000 294 431 0
2018-05-17 06:17:59 GMT 58.265385 54.543915 38,000 294 431 0
2018-05-17 06:17:48 GMT 58.257568 54.578751 38,000 294 431 -64
2018-05-17 06:17:37 GMT 58.249374 54.614986 38,000 294 430 0
2018-05-17 06:17:27 GMT 58.240993 54.652222 38,000 294 430 0
2018-05-17 06:17:16 GMT 58.232754 54.688477 38,000 294 430 0
2018-05-17 06:17:07 GMT 58.224560 54.724731 38,000 294 430 0
2018-05-17 06:16:55 GMT 58.216179 54.761627 38,000 294 430 64
2018-05-17 06:16:45 GMT 58.208038 54.797501 38,000 294 430 0
2018-05-17 06:16:34 GMT 58.199841 54.833679 38,000 294 430 0
2018-05-17 06:16:25 GMT 58.191971 54.868469 38,000 294 430 128
2018-05-17 06:16:14 GMT 58.183777 54.904705 38,000 294 429 0
2018-05-17 06:16:03 GMT 58.175171 54.940060 38,000 296 426 0
2018-05-17 06:15:53 GMT 58.166107 54.974346 38,000 298 424 -192
2018-05-17 06:15:42 GMT 58.156265 55.008457 38,025 300 422 64
2018-05-17 06:15:33 GMT 58.146149 55.040974 38,000 302 421 64
2018-05-17 06:15:21 GMT 58.135132 55.074738 38,000 302 422 -64
2018-05-17 06:15:12 GMT 58.124451 55.107510 38,000 302 423 128
2018-05-17 06:15:01 GMT 58.113739 55.140205 38,000 302 424 -128
2018-05-17 06:14:50 GMT 58.103104 55.172607 38,000 302 424 64
2018-05-17 06:14:40 GMT 58.092590 55.204529 38,000 302 424 0
2018-05-17 06:14:30 GMT 58.081879 55.237309 38,000 302 424 -64
2018-05-17 06:14:20 GMT 58.070663 55.271240 38,000 302 424 64
2018-05-17 06:14:08 GMT 58.059860 55.303936 38,000 302 424 -64
2018-05-17 06:13:59 GMT 58.049477 55.335480 38,000 302 423 0
2018-05-17 06:13:48 GMT 58.038620 55.368172 38,000 302 423 -128
2018-05-17 06:13:37 GMT 58.027737 55.401215 38,000 303 422 0
2018-05-17 06:13:27 GMT 58.016876 55.433910 38,000 303 421 0
2018-05-17 06:13:17 GMT 58.006508 55.465210 38,000 302 420 64
2018-05-17 06:13:07 GMT 57.995590 55.497879 38,000 303 420 0
2018-05-17 06:12:56 GMT 57.984863 55.530121 38,000 303 420 -128
2018-05-17 06:12:46 GMT 57.974014 55.562714 38,000 303 419 -128
2018-05-17 06:12:35 GMT 57.963448 55.594299 38,025 303 419 -128
2018-05-17 06:12:24 GMT 57.952560 55.626793 38,000 303 419 128
2018-05-17 06:12:14 GMT 57.941895 55.658688 38,000 303 419 256
2018-05-17 06:12:03 GMT 57.931049 55.691071 38,025 303 419 64
2018-05-17 06:11:53 GMT 57.919830 55.724487 38,000 303 418 0
2018-05-17 06:11:43 GMT 57.909668 55.754818 38,000 303 418 0
2018-05-17 06:11:32 GMT 57.899067 55.786285 38,000 303 418 64
2018-05-17 06:11:23 GMT 57.888565 55.817368 38,000 303 416 -128
2018-05-17 06:11:12 GMT 57.877899 55.848911 38,000 303 415 -128
2018-05-17 06:11:02 GMT 57.866867 55.881603 38,000 303 415 64
2018-05-17 06:10:50 GMT 57.856052 55.913544 38,000 303 415 0
2018-05-17 06:10:41 GMT 57.845856 55.943535 38,000 303 415 64
2018-05-17 06:10:31 GMT 57.834869 55.975964 38,000 303 415 128
2018-05-17 06:10:20 GMT 57.824211 56.007294 38,000 303 415 64
2018-05-17 06:10:09 GMT 57.813446 56.038868 38,025 303 415 128
2018-05-17 06:09:59 GMT 57.802608 56.070648 38,000 303 414 0
2018-05-17 06:09:48 GMT 57.791199 56.104076 38,000 303 414 0
2018-05-17 06:09:38 GMT 57.781128 56.133671 38,000 303 413 -128
2018-05-17 06:08:57 GMT 57.738647 56.257530 38,000 303 409 64
2018-05-17 06:08:46 GMT 57.728035 56.288544 38,000 303 408 0
2018-05-17 06:08:36 GMT 57.717464 56.319374 38,000 303 407 -64
2018-05-17 06:08:25 GMT 57.706970 56.349907 38,000 303 407 0
2018-05-17 06:08:14 GMT 57.696098 56.381569 38,000 303 407 0
2018-05-17 06:08:05 GMT 57.685593 56.412220 38,000 303 407 0
2018-05-17 06:07:54 GMT 57.675201 56.442692 38,000 303 407 0
2018-05-17 06:07:43 GMT 57.664719 56.473675 38,000 303 407 -64
2018-05-17 06:07:33 GMT 57.654758 56.503658 38,000 302 406 64
2018-05-17 06:07:23 GMT 57.644623 56.535046 38,000 301 406 -64
2018-05-17 06:07:13 GMT 57.634743 56.567276 38,000 300 408 0
2018-05-17 06:07:01 GMT 57.625153 56.599525 38,000 299 407 0
2018-05-17 06:06:52 GMT 57.615967 56.630573 38,000 300 408 64
2018-05-17 06:06:41 GMT 57.606308 56.663101 38,000 300 408 0
2018-05-17 06:06:30 GMT 57.596802 56.695034 38,000 300 408 64
2018-05-17 06:06:20 GMT 57.587212 56.727375 38,000 300 408 0
2018-05-17 06:06:10 GMT 57.577343 56.760422 38,000 300 408 0
2018-05-17 06:05:59 GMT 57.567753 56.792496 38,000 300 407 -64
2018-05-17 06:05:48 GMT 57.558334 56.824120 38,000 300 407 -64
2018-05-17 06:05:38 GMT 57.544098 56.871586 38,000 300 407 64
2018-05-17 06:05:22 GMT 57.534622 56.903255 38,000 300 407 0
2018-05-17 06:05:12 GMT 57.524738 56.936203 38,000 300 407 0
2018-05-17 06:05:02 GMT 57.515121 56.968315 38,000 300 406 0
2018-05-17 06:04:51 GMT 57.505699 56.999550 38,000 300 405 0
2018-05-17 06:04:40 GMT 57.496307 57.030716 38,000 300 404 64
2018-05-17 06:04:31 GMT 57.486786 57.062218 38,000 300 405 -64
2018-05-17 06:04:18 GMT 57.474880 57.101528 38,000 300 405 0
2018-05-17 06:04:10 GMT 57.467575 57.125538 38,000 300 405 0
2018-05-17 06:04:07 GMT 57.465866 57.131138 38,000 300 405 0
2018-05-17 06:03:59 GMT 57.457890 57.157169 38,000 300 405 0
2018-05-17 06:03:56 GMT 57.455471 57.165142 38,000 300 405 0
2018-05-17 06:03:48 GMT 57.448288 57.188644 38,000 300 405 0
2018-05-17 06:03:45 GMT 57.444809 57.200062 38,000 300 405 0
2018-05-17 06:03:38 GMT 57.438629 57.220142 38,000 300 406 0
2018-05-17 06:03:35 GMT 57.436478 57.227180 38,000 300 406 0
2018-05-17 06:03:26 GMT 57.427120 57.257641 38,000 300 406 0
2018-05-17 06:03:15 GMT 57.417389 57.289326 38,000 300 406 -64
2018-05-17 06:03:05 GMT 57.408031 57.319660 38,000 300 407 0
2018-05-17 06:02:55 GMT 57.398163 57.351646 38,000 300 408 0
2018-05-17 06:02:44 GMT 57.388504 57.382965 38,000 300 408 0
2018-05-17 06:02:34 GMT 57.379028 57.413609 38,000 300 408 -64
2018-05-17 06:02:24 GMT 57.369118 57.445648 38,000 300 407 0
2018-05-17 06:02:13 GMT 57.359760 57.475773 38,000 300 407 0
2018-05-17 06:02:03 GMT 57.349983 57.507225 38,000 300 407 0
2018-05-17 06:01:52 GMT 57.339787 57.539921 38,000 300 406 0
2018-05-17 06:01:41 GMT 57.329964 57.571548 38,000 300 406 0
2018-05-17 06:01:30 GMT 57.319839 57.604065 38,000 300 406 -64
2018-05-17 06:01:20 GMT 57.310600 57.633747 38,000 300 406 0
2018-05-17 06:01:11 GMT 57.301163 57.663803 38,000 300 406 0
2018-05-17 06:01:00 GMT 57.291374 57.695145 38,000 301 405 -64
2018-05-17 06:00:49 GMT 57.281460 57.726776 38,025 301 404 0
2018-05-17 06:00:40 GMT 57.271915 57.757252 38,000 301 403 0
2018-05-17 06:00:28 GMT 57.261749 57.789543 38,000 301 404 0
2018-05-17 06:00:19 GMT 57.252136 57.820015 38,000 301 405 0
2018-05-17 06:00:07 GMT 57.242203 57.851601 38,000 301 408 64
2018-05-17 05:59:57 GMT 57.232315 57.882931 38,000 301 410 64
2018-05-17 05:59:47 GMT 57.222565 57.913914 38,025 301 411 128
2018-05-17 05:59:36 GMT 57.212700 57.945259 38,000 301 413 128
2018-05-17 05:59:25 GMT 57.202057 57.978802 38,000 301 413 -128
2018-05-17 05:59:16 GMT 57.192032 58.010471 38,025 301 412 -64
2018-05-17 05:59:07 GMT 57.183426 58.037682 38,000 301 410 64
2018-05-17 05:59:04 GMT 57.181976 58.042191 38,025 301 410 64
2018-05-17 05:58:55 GMT 57.172531 58.072014 38,000 301 410 0
2018-05-17 05:58:44 GMT 57.162052 58.104828 38,000 301 409 -64
2018-05-17 05:58:34 GMT 57.152275 58.135662 38,000 301 409 0
2018-05-17 05:58:23 GMT 57.137466 58.181965 38,000 301 406 0
2018-05-17 05:58:14 GMT 57.134026 58.192719 38,000 301 406 0
2018-05-17 05:58:07 GMT 57.127419 58.213451 38,000 301 406 0
2018-05-17 05:58:04 GMT 57.124146 58.223763 38,000 301 406 0
2018-05-17 05:57:54 GMT 57.114708 58.253235 38,000 301 406 0
2018-05-17 05:57:44 GMT 57.104839 58.284065 38,000 301 406 0
2018-05-17 05:57:37 GMT 57.097778 58.306072 38,000 301 407 64
2018-05-17 05:57:32 GMT 57.094254 58.317059 38,000 301 407 0
2018-05-17 05:57:26 GMT 57.088127 58.336075 38,000 301 408 -64
2018-05-17 05:57:22 GMT 57.084824 58.346416 38,000 301 408 -64
2018-05-17 05:57:16 GMT 57.077744 58.368412 38,000 301 408 0
2018-05-17 05:57:13 GMT 57.074905 58.377182 38,000 301 408 64
2018-05-17 05:57:02 GMT 57.064865 58.408382 38,025 301 408 -64
2018-05-17 05:56:49 GMT 57.052872 58.445549 38,025 301 408 64
2018-05-17 05:56:39 GMT 57.042664 58.477222 38,000 301 409 -64
2018-05-17 05:56:31 GMT 57.035339 58.499794 38,000 301 410 64
2018-05-17 05:56:28 GMT 57.033005 58.507092 38,000 301 411 0
2018-05-17 05:56:18 GMT 57.022522 58.539536 38,000 301 412 -128
2018-05-17 05:56:08 GMT 57.011948 58.572063 38,000 301 412 0
2018-05-17 05:56:00 GMT 57.005169 58.593014 38,000 301 412 0
2018-05-17 05:55:57 GMT 57.002335 58.601849 38,000 301 412 0
2018-05-17 05:55:50 GMT 56.994873 58.624680 38,000 301 412 0
2018-05-17 05:55:47 GMT 56.992043 58.633411 38,000 301 412 0
2018-05-17 05:55:39 GMT 56.984711 58.656094 38,000 301 412 64
2018-05-17 05:55:35 GMT 56.981476 58.665928 38,000 301 411 64
2018-05-17 05:55:25 GMT 56.966171 58.713081 38,000 301 411 -128
2018-05-17 05:55:19 GMT 56.964531 58.718113 38,000 301 411 -192
2018-05-17 05:55:08 GMT 56.954498 58.749046 38,000 301 411 0
2018-05-17 05:54:58 GMT 56.944839 58.778831 38,000 301 410 64
2018-05-17 05:54:47 GMT 56.934132 58.811764 38,000 301 412 0
2018-05-17 05:54:39 GMT 56.925522 58.838257 38,000 301 412 -64
2018-05-17 05:54:36 GMT 56.923611 58.843838 38,000 301 412 0
2018-05-17 05:54:26 GMT 56.914021 58.873516 38,000 301 412 0
2018-05-17 05:54:16 GMT 56.904339 58.903111 38,000 301 411 64
2018-05-17 05:54:05 GMT 56.893631 58.935802 38,000 301 411 -128
2018-05-17 05:53:55 GMT 56.883621 58.966190 38,025 302 413 64
2018-05-17 05:53:45 GMT 56.873611 58.995979 38,000 301 414 -64
2018-05-17 05:53:34 GMT 56.864349 59.027767 38,000 296 418 -64
2018-05-17 05:53:25 GMT 56.856762 59.061172 38,000 290 421 192
2018-05-17 05:53:14 GMT 56.850945 59.096256 38,000 284 426 0
2018-05-17 05:53:03 GMT 56.846985 59.133381 38,000 278 430 0
2018-05-17 05:52:59 GMT 56.846008 59.148502 38,000 276 432 0
2018-05-17 05:52:53 GMT 56.844772 59.171417 38,000 276 432 0
2018-05-17 05:52:49 GMT 56.843960 59.186184 38,000 276 432 0
2018-05-17 05:52:43 GMT 56.842796 59.208157 38,000 276 432 -64
2018-05-17 05:52:39 GMT 56.841797 59.226265 38,000 276 432 0
2018-05-17 05:52:32 GMT 56.840698 59.245918 38,000 276 431 0
2018-05-17 05:52:29 GMT 56.840050 59.258217 38,000 276 431 0
2018-05-17 05:52:22 GMT 56.838593 59.284286 38,000 276 431 0
2018-05-17 05:52:19 GMT 56.838047 59.294540 38,000 276 430 0
2018-05-17 05:52:12 GMT 56.836624 59.320335 38,000 276 430 0
2018-05-17 05:52:08 GMT 56.835892 59.333298 38,000 276 430 0
2018-05-17 05:51:59 GMT 56.833923 59.368744 38,000 276 429 0
2018-05-17 05:51:51 GMT 56.832417 59.396164 38,000 276 429 0
2018-05-17 05:51:48 GMT 56.831863 59.405910 38,000 276 429 0
2018-05-17 05:51:41 GMT 56.830399 59.431915 38,000 276 429 0
2018-05-17 05:51:37 GMT 56.829666 59.445339 38,000 276 430 0
2018-05-17 05:51:30 GMT 56.828274 59.469879 38,000 276 430 0
2018-05-17 05:51:27 GMT 56.827713 59.480423 38,000 276 430 0
2018-05-17 05:51:19 GMT 56.826130 59.508156 38,000 276 430 0
2018-05-17 05:51:16 GMT 56.825386 59.521534 38,000 276 430 -64
2018-05-17 05:51:07 GMT 56.823479 59.555023 38,000 276 430 0
2018-05-17 05:50:59 GMT 56.821930 59.581776 38,000 277 430 0
2018-05-17 05:50:55 GMT 56.821243 59.594395 38,000 277 430 0
2018-05-17 05:50:49 GMT 56.819824 59.619110 38,000 276 431 0
2018-05-17 05:50:46 GMT 56.819099 59.631397 38,000 276 431 -64
2018-05-17 05:50:39 GMT 56.817627 59.657047 38,000 277 430 0
2018-05-17 05:50:34 GMT 56.816849 59.670956 38,000 277 430 -64
2018-05-17 05:50:28 GMT 56.815472 59.694569 38,025 277 430 0
2018-05-17 05:50:25 GMT 56.814819 59.705376 38,025 277 429 0
2018-05-17 05:50:18 GMT 56.813282 59.731689 38,000 277 428 64
2018-05-17 05:50:15 GMT 56.812637 59.743053 38,000 277 428 0
2018-05-17 05:50:07 GMT 56.811127 59.768543 38,000 277 427 0
2018-05-17 05:50:00 GMT 56.809746 59.792294 38,000 277 427 -64
2018-05-17 05:49:56 GMT 56.808884 59.806740 38,000 277 427 -64
2018-05-17 05:49:51 GMT 56.807739 59.826908 38,000 277 426 0
2018-05-17 05:49:47 GMT 56.806717 59.843769 38,000 277 426 0
2018-05-17 05:49:35 GMT 56.804485 59.881866 38,000 277 425 -64
2018-05-17 05:49:25 GMT 56.802383 59.917629 38,025 277 425 0
2018-05-17 05:49:15 GMT 56.800140 59.954624 38,000 277 425 64
2018-05-17 05:49:05 GMT 56.797966 59.990757 38,000 277 425 0
2018-05-17 05:49:00 GMT 56.796898 60.008743 38,000 277 424 0
2018-05-17 05:48:52 GMT 56.795059 60.038822 38,000 277 423 0
2018-05-17 05:48:44 GMT 56.793449 60.064472 38,000 277 422 64
2018-05-17 05:48:41 GMT 56.792770 60.075645 38,000 277 422 0
2018-05-17 05:48:33 GMT 56.791168 60.101650 38,000 277 421 0
2018-05-17 05:48:28 GMT 56.789822 60.122593 38,025 277 418 64
2018-05-17 05:48:21 GMT 56.788193 60.147743 38,000 277 419 0
2018-05-17 05:48:13 GMT 56.786453 60.173492 38,000 277 419 -64
2018-05-17 05:48:03 GMT 56.784073 60.209541 38,000 277 418 -64
2018-05-17 05:47:56 GMT 56.782604 60.231922 38,025 277 418 64
2018-05-17 05:47:52 GMT 56.781647 60.246189 38,025 277 419 128
2018-05-17 05:47:47 GMT 56.780510 60.263554 38,000 277 419 192
2018-05-17 05:47:38 GMT 56.778397 60.294769 38,000 277 420 0
2018-05-17 05:47:29 GMT 56.776089 60.328854 38,000 277 420 0
2018-05-17 05:47:18 GMT 56.773621 60.365532 38,000 277 420 64
2018-05-17 05:47:07 GMT 56.771152 60.402035 38,000 277 419 0
2018-05-17 05:46:58 GMT 56.768738 60.437679 38,000 278 418 0
2018-05-17 05:46:47 GMT 56.766312 60.473358 38,025 278 418 -64
2018-05-17 05:46:37 GMT 56.763844 60.509949 38,025 278 416 64
2018-05-17 05:46:27 GMT 56.761330 60.546719 38,000 278 416 64
2018-05-17 05:46:16 GMT 56.758907 60.581627 38,000 278 416 64
2018-05-17 05:46:06 GMT 56.756256 60.619637 38,000 278 417 0
2018-05-17 05:45:55 GMT 56.753723 60.655087 38,000 278 417 -64
2018-05-17 05:45:45 GMT 56.751160 60.689850 38,025 278 417 128
2018-05-17 05:45:34 GMT 56.748276 60.731480 38,000 276 419 0
2018-05-17 05:45:24 GMT 56.747364 60.763699 38,025 269 424 0
2018-05-17 05:45:20 GMT 56.747360 60.778515 38,025 269 424 0
2018-05-17 05:45:13 GMT 56.748108 60.806225 38,025 266 426 64
2018-05-17 05:45:03 GMT 56.750107 60.836704 38,000 261 430 64
2018-05-17 05:44:52 GMT 56.755138 60.880028 38,000 256 436 64
2018-05-17 05:44:42 GMT 56.759979 60.914581 38,000 256 436 0
2018-05-17 05:44:32 GMT 56.764664 60.948200 38,000 256 436 -64
2018-05-17 05:44:20 GMT 56.770779 60.991753 38,000 256 434 -64
2018-05-17 05:44:12 GMT 56.774876 61.021255 38,025 256 434 -64
2018-05-17 05:44:01 GMT 56.779903 61.057404 38,025 256 434 64
2018-05-17 05:43:50 GMT 56.785034 61.094196 38,000 256 435 64
2018-05-17 05:43:40 GMT 56.790237 61.131828 38,000 256 436 -64
2018-05-17 05:43:30 GMT 56.795219 61.167709 38,000 256 436 0
2018-05-17 05:43:19 GMT 56.800323 61.204834 38,000 256 436 -64
2018-05-17 05:43:09 GMT 56.805267 61.240883 38,000 256 433 0
2018-05-17 05:43:06 GMT 56.807137 61.254715 38,000 256 433 0
2018-05-17 05:42:59 GMT 56.810394 61.278374 38,000 257 432 64
2018-05-17 05:42:49 GMT 56.815376 61.314873 38,000 257 430 0
2018-05-17 05:42:36 GMT 56.821430 61.359707 37,975 257 428 512
2018-05-17 05:42:27 GMT 56.825226 61.387569 37,925 257 428 512
2018-05-17 05:42:18 GMT 56.830170 61.424129 37,825 257 428 512
2018-05-17 05:42:07 GMT 56.834930 61.459293 37,750 257 428 512
2018-05-17 05:41:56 GMT 56.839874 61.495888 37,650 257 429 128
2018-05-17 05:41:46 GMT 56.844772 61.532364 37,550 257 427 704
2018-05-17 05:41:40 GMT 56.847885 61.555450 37,550 257 427 704
2018-05-17 05:41:36 GMT 56.849716 61.569016 37,500 257 428 1216
2018-05-17 05:41:24 GMT 56.855072 61.608665 37,250 257 432 1408
2018-05-17 05:41:15 GMT 56.859509 61.641808 37,050 257 435 1216
2018-05-17 05:41:12 GMT 56.861465 61.656338 36,975 257 436 1216
2018-05-17 05:41:05 GMT 56.865421 61.685928 36,800 257 438 1152
2018-05-17 05:40:54 GMT 56.869720 61.718102 36,625 257 440 1024
2018-05-17 05:40:43 GMT 56.874683 61.755390 36,450 257 442 896
2018-05-17 05:40:33 GMT 56.880112 61.796379 36,300 257 443 768
2018-05-17 05:40:23 GMT 56.884556 61.829903 36,175 257 443 896
2018-05-17 05:40:12 GMT 56.889587 61.867962 36,000 257 444 1472
2018-05-17 05:40:02 GMT 56.894440 61.904869 35,775 257 446 896
2018-05-17 05:39:52 GMT 56.899544 61.943665 35,625 257 447 576
2018-05-17 05:39:49 GMT 56.901218 61.956512 35,575 257 446 640
2018-05-17 05:39:42 GMT 56.904556 61.982117 35,525 257 446 640
2018-05-17 05:39:31 GMT 56.909367 62.018887 35,375 257 447 832
2018-05-17 05:39:20 GMT 56.914394 62.057602 34,900 257 447 832
2018-05-17 05:39:11 GMT 56.919342 62.095497 35,100 257 446 1088
2018-05-17 05:39:00 GMT 56.924149 62.132664 34,900 257 447 1024
2018-05-17 05:38:49 GMT 56.929195 62.171631 34,750 257 448 960
2018-05-17 05:38:39 GMT 56.934132 62.209908 34,575 257 448 896
2018-05-17 05:38:28 GMT 56.939114 62.248802 34,425 257 446 768
2018-05-17 05:38:18 GMT 56.944000 62.286812 34,300 257 446 832
2018-05-17 05:38:07 GMT 56.948936 62.325439 34,150 257 445 768
2018-05-17 05:37:58 GMT 56.953720 62.363205 34,025 257 444 512
2018-05-17 05:37:47 GMT 56.958527 62.401054 33,925 257 442 832
2018-05-17 05:37:36 GMT 56.963413 62.439556 33,750 257 441 896
2018-05-17 05:37:26 GMT 56.968185 62.477360 33,625 258 441 832
2018-05-17 05:37:16 GMT 56.972763 62.513924 33,475 258 440 896
2018-05-17 05:37:04 GMT 56.977844 62.554264 33,300 258 439 704
2018-05-17 05:36:55 GMT 56.982311 62.590176 33,200 258 437 640
2018-05-17 05:36:45 GMT 56.986923 62.626942 33,075 258 435 768
2018-05-17 05:36:34 GMT 56.991623 62.664776 32,950 258 433 896
2018-05-17 05:36:23 GMT 56.996281 62.701897 32,800 258 432 1088
2018-05-17 05:36:14 GMT 57.000839 62.738491 32,575 258 432 1536
2018-05-17 05:36:03 GMT 57.005402 62.775452 32,325 258 433 1216
2018-05-17 05:35:52 GMT 57.010117 62.813473 32,150 258 433 960
2018-05-17 05:35:42 GMT 57.014481 62.848885 32,000 258 432 704
2018-05-17 05:35:32 GMT 57.019089 62.886429 31,875 258 430 896
2018-05-17 05:35:22 GMT 57.023575 62.922993 31,700 258 429 1024
2018-05-17 05:35:11 GMT 57.028168 62.960609 31,550 258 427 704
2018-05-17 05:35:01 GMT 57.032497 62.996136 31,425 258 424 832
2018-05-17 05:34:51 GMT 57.036942 63.032944 31,275 258 422 896
2018-05-17 05:34:40 GMT 57.041245 63.068390 31,125 258 419 832
2018-05-17 05:34:29 GMT 57.045578 63.104317 30,975 258 416 768
2018-05-17 05:34:20 GMT 57.049862 63.140022 30,850 258 413 768
2018-05-17 05:34:09 GMT 57.054096 63.175198 30,725 258 409 448
2018-05-17 05:33:58 GMT 57.058239 63.209927 30,650 258 405 640
2018-05-17 05:33:49 GMT 57.062347 63.244598 30,525 258 401 1344
2018-05-17 05:33:38 GMT 57.066433 63.278683 30,275 258 401 1536
2018-05-17 05:33:27 GMT 57.070576 63.313324 30,000 258 400 1344
2018-05-17 05:33:18 GMT 57.074524 63.346741 29,775 258 399 1344
2018-05-17 05:33:07 GMT 57.078598 63.381413 29,550 258 396 1280
2018-05-17 05:32:56 GMT 57.082680 63.416100 29,325 258 394 1280
2018-05-17 05:32:47 GMT 57.086544 63.449059 29,100 258 392 1408
2018-05-17 05:32:36 GMT 57.090729 63.484840 28,825 258 390 1664
2018-05-17 05:32:25 GMT 57.094528 63.517456 28,525 258 390 2048
2018-05-17 05:32:14 GMT 57.098694 63.552990 28,150 258 390 2048
2018-05-17 05:32:05 GMT 57.102493 63.585434 27,800 258 391 2048
2018-05-17 05:31:54 GMT 57.106422 63.618813 27,475 258 391 2048
2018-05-17 05:31:44 GMT 57.110275 63.651524 27,150 258 391 1600
2018-05-17 05:31:34 GMT 57.114258 63.685169 26,875 258 389 1536
2018-05-17 05:31:23 GMT 57.117966 63.718754 26,600 260 385 1472
2018-05-17 05:31:12 GMT 57.121178 63.752510 26,350 261 381 1216
2018-05-17 05:31:03 GMT 57.123871 63.785503 26,125 263 377 1536
2018-05-17 05:30:52 GMT 57.126019 63.818161 25,850 264 373 2048
2018-05-17 05:30:41 GMT 57.128067 63.851475 25,475 264 372 1920
2018-05-17 05:30:31 GMT 57.130024 63.882484 25,150 264 371 2048
2018-05-17 05:30:20 GMT 57.132065 63.916054 24,800 264 370 1792
2018-05-17 05:30:10 GMT 57.134026 63.948669 24,500 264 367 1664
2018-05-17 05:30:00 GMT 57.135864 63.979137 24,200 264 364 1792
2018-05-17 05:29:49 GMT 57.137844 64.011932 23,875 264 361 2112
2018-05-17 05:29:40 GMT 57.139751 64.043381 23,500 264 360 1984
2018-05-17 05:29:29 GMT 57.141617 64.075188 23,150 264 357 2112
2018-05-17 05:29:19 GMT 57.143433 64.105316 22,775 264 356 2624
2018-05-17 05:29:08 GMT 57.145340 64.136986 22,325 264 356 2432
2018-05-17 05:28:58 GMT 57.147202 64.168488 21,900 264 355 2112
2018-05-17 05:28:47 GMT 57.148956 64.198952 21,550 264 352 2176
2018-05-17 05:28:37 GMT 57.150787 64.230148 21,150 264 349 2496
2018-05-17 05:28:26 GMT 57.152573 64.260406 20,725 264 347 2560
2018-05-17 05:28:16 GMT 57.154324 64.290665 20,275 264 347 2624
2018-05-17 05:28:06 GMT 57.156094 64.321228 19,825 264 345 2432
2018-05-17 05:27:55 GMT 57.157864 64.351707 19,400 264 343 2432
2018-05-17 05:27:45 GMT 57.159576 64.382027 18,975 264 340 2624
2018-05-17 05:27:24 GMT 57.163055 64.443481 18,050 265 335 2560
2018-05-17 05:27:13 GMT 57.164703 64.472649 17,625 265 332 2496
2018-05-17 05:27:03 GMT 57.166351 64.502022 17,175 265 329 2432
2018-05-17 05:26:53 GMT 57.168045 64.532578 16,725 265 326 2624
2018-05-17 05:26:42 GMT 57.169601 64.560127 16,275 265 322 2944
2018-05-17 05:26:32 GMT 57.170990 64.584900 15,825 265 322 2944
2018-05-17 05:26:22 GMT 57.172573 64.613518 15,325 265 319 2816
2018-05-17 05:26:11 GMT 57.174179 64.642097 14,800 265 317 3136
2018-05-17 05:26:01 GMT 57.175644 64.668892 14,275 265 316 3008
2018-05-17 05:25:51 GMT 57.177135 64.696091 13,775 265 313 2880
2018-05-17 05:25:40 GMT 57.178719 64.724800 13,250 265 310 2944
2018-05-17 05:25:31 GMT 57.180206 64.751732 12,750 265 307 3136
2018-05-17 05:25:20 GMT 57.181595 64.777367 12,250 265 305 3072
2018-05-17 05:25:10 GMT 57.183060 64.804314 11,700 265 303 3136
2018-05-17 05:25:00 GMT 57.184490 64.831123 11,150 265 300 2880
2018-05-17 05:24:49 GMT 57.185886 64.857697 10,650 265 296 2944
2018-05-17 05:24:38 GMT 57.187225 64.883453 10,125 265 293 3584
2018-05-17 05:24:29 GMT 57.188633 64.909622 9,475 265 293 3712
2018-05-17 05:24:18 GMT 57.189926 64.934006 8,875 265 294 3008
2018-05-17 05:24:08 GMT 57.191238 64.959679 8,400 265 289 2688
2018-05-17 05:23:58 GMT 57.192581 64.985931 7,875 265 284 3456
2018-05-17 05:23:47 GMT 57.193817 65.009705 7,275 265 282 3968
2018-05-17 05:23:36 GMT 57.195198 65.035782 6,575 265 283 3520
2018-05-17 05:23:26 GMT 57.196381 65.059235 6,000 265 281 3776
2018-05-17 05:23:15 GMT 57.197708 65.084694 5,300 265 280 3776
2018-05-17 05:23:05 GMT 57.199036 65.109528 4,650 265 279 3328
2018-05-17 05:22:54 GMT 57.200409 65.135536 4,100 265 273 1856
2018-05-17 05:22:44 GMT 57.201572 65.157257 3,900 265 256 960
2018-05-17 05:22:34 GMT 57.202789 65.179222 3,725 265 236 768
2018-05-17 05:22:24 GMT 57.203796 65.198540 3,600 265 213 640
2018-05-17 05:22:14 GMT 57.204758 65.216820 3,500 265 191 1216
2018-05-17 05:22:03 GMT 57.205578 65.232918 3,275 266 175 704
2018-05-17 05:21:53 GMT 57.206131 65.247292 3,125 268 156 1536
2018-05-17 05:21:43 GMT 57.206184 65.261002 2,800 273 149 2240
2018-05-17 05:21:32 GMT 57.205578 65.274117 2,400 279 147 2368
2018-05-17 05:21:22 GMT 57.204182 65.286430 2,025 288 146 1984
2018-05-17 05:21:12 GMT 57.201622 65.298218 1,675 299 143 1792
2018-05-17 05:21:01 GMT 57.197708 65.308846 1,375 311 140 2112
2018-05-17 05:20:50 GMT 57.193176 65.317924 975 316 140 2496
2018-05-17 05:20:40 GMT 57.188232 65.326767 500 316 144 2752
2018-05-17 05:20:29 GMT 57.182934 65.336487 0 315 145
2018-05-17 05:19:45 GMT 57.173317 65.354385 0 135 13
2018-05-17 05:19:34 GMT 57.172970 65.355164 0 135 11
2018-05-17 05:19:26 GMT 57.173035 65.355820 0 135 11
2018-05-17 05:19:18 GMT 57.173344 65.356445 0 135 12
2018-05-17 05:16:41 GMT 57.180988 65.345627 0 120 4
2018-05-17 05:16:31 GMT 57.181068 65.345474 0 120 0
2018-05-17 05:16:20 GMT 57.181080 65.345474 0 120 0
2018-05-17 05:16:10 GMT 57.181068 65.345482 0 120 0
2018-05-17 05:15:49 GMT 57.181068 65.345474 0 120 0
2018-05-17 05:15:31 GMT 57.181068 65.345482 0 120 0
2018-05-17 05:15:25 GMT 57.181068 65.345474 0 120 0
2018-05-17 05:14:24 GMT 57.181068 65.345474 0 120 0
2018-05-17 05:14:14 GMT 57.181068 65.345459 0 120 0
2018-05-17 05:14:05 GMT 57.181080 65.345459 0 120 0
2018-05-17 05:13:44 GMT 57.181091 65.345474 0 120 0
2018-05-17 05:13:35 GMT 57.181091 65.345482 0 120 0
2018-05-17 05:13:24 GMT 57.181080 65.345482 0 120 0
2018-05-17 05:13:14 GMT 57.181091 65.345482 0 120 0
2018-05-17 05:13:05 GMT 57.181080 65.345482 0 120 0

Making use of Plane Finder data

You are free to use the raw flight data, aircraft information and images provided in this report for your own purposes provided the data is correctly attributed to Plane Finder. We ask that you please credit Plane Finder and link to planefinder.net in close proximity to the content.

Optionally one of the following logos (no smaller then 150x24px) can be used and must link to planefinder.net

Embedding the Plane Finder map

You are welcome to embed the Plane Finder playback map on your website to offer visitors a more interactive experience. We suggest using the following HTML code:

<iframe src="//planefinder.net/data/report/LLM9595-RA-89072-7700-squawk-2018-05-17/map" width="800" height="600" seamless="seamless"></iframe>

Where our data comes from

Plane Finder has a global network of data feeds and antenna radars that receive data broadcast directly from aircraft. The primary technologies used are ADS-B and MLAT. We also show feeds from the FAA and a FLARM glider feed.

Click here to find out more about the Plane Finder network.

How we collect our data